M I D A S
Marine Information and Data Acquisition System
Tripno 2290 of the Zeeleeuw from 2012-04-16 07:19:15 to 2012-04-16 17:02:20
Back to CruiseResearch ActivitiesStationsMapUnderway DataData graphs

EquipmentUnitsComment
TimeDGPSUTC
LatitudeDGPSDM.mWGS84
LongitudeDGPSDM.mWGS84
TemperatureSBE03/SBE38deg celciusITS90
ConductivitySBE21S/mITS90
SalinitySBE21 Practical Salinity Units
ChlorophylAChelsea fluorimeterg/lCalibrated in Aceton
Missing or incorrect values are displayed as -999
Sea surface data collected by the RV Zeeleeuw from 2012-04-16 05:55:52 to 2012-04-16 17:18:31
                                                                                    Next 1000 lines
Time Latitude Longitude Temperature Conductivity Salinity ChlorophylA
2012-04-16 05:56:02 51°13.638 2°56.019 15.3855 4.605878 31.449071 -2.458615
2012-04-16 05:56:06 51°13.638 2°56.019 15.3838 4.605774 31.448278 -2.458615
2012-04-16 05:56:13 51°13.638 2°56.018 15.3829 4.605671 31.448022 -2.458615
2012-04-16 05:56:17 51°13.638 2°56.018 15.3918 4.605774 31.44935 -2.458615
2012-04-16 05:56:23 51°13.638 2°56.018 15.384 4.605567 31.447766 -2.458615
2012-04-16 05:56:27 51°13.638 2°56.018 15.3884 4.605671 31.449094 -2.458615
2012-04-16 05:56:32 51°13.638 2°56.017 15.3925 4.605671 31.449094 -2.458615
2012-04-16 05:56:37 51°13.638 2°56.017 15.3834 4.605671 31.449094 -2.458615
2012-04-16 05:56:42 51°13.638 2°56.017 15.3804 4.605567 31.448302 -2.458615
2012-04-16 05:56:47 51°13.638 2°56.017 15.3847 4.605671 31.44963 -2.458615
2012-04-16 05:56:53 51°13.637 2°56.017 15.386 4.605463 31.448045 -2.458615
2012-04-16 05:56:58 51°13.637 2°56.017 15.3817 4.605463 31.448581 -2.458615
2012-04-16 05:57:03 51°13.637 2°56.018 15.3859 4.605463 31.448581 -2.458615
2012-04-16 05:57:07 51°13.637 2°56.017 15.3901 4.605463 31.448581 -2.458615
2012-04-16 05:57:12 51°13.637 2°56.016 15.3878 4.605359 31.447789 -2.458615
2012-04-16 05:57:17 51°13.637 2°56.017 15.389 4.605359 31.448325 -2.458615
2012-04-16 05:57:22 51°13.637 2°56.017 15.3909 4.605463 31.449117 -2.458615
2012-04-16 05:57:27 51°13.637 2°56.018 15.3941 4.605256 31.448068 -2.458615
2012-04-16 05:57:32 51°13.637 2°56.018 15.3925 4.605256 31.448068 -2.458615
2012-04-16 05:57:37 51°13.637 2°56.018 15.3833 4.605359 31.449397 -2.458615
2012-04-16 05:57:42 51°13.638 2°56.018 15.3814 4.605152 31.447812 -2.458615
2012-04-16 05:57:47 51°13.638 2°56.018 15.389 4.605152 31.447812 -2.458615
2012-04-16 05:57:52 51°13.638 2°56.018 15.3999 4.605152 31.448348 -2.458615
2012-04-16 05:57:57 51°13.637 2°56.018 15.3919 4.604944 31.446763 -2.458615
2012-04-16 05:58:03 51°13.637 2°56.018 15.3906 4.604944 31.446763 -2.458615
2012-04-16 05:58:08 51°13.637 2°56.017 15.4069 4.605152 31.448348 -2.458615
2012-04-16 05:58:12 51°13.637 2°56.018 15.3989 4.605152 31.448884 -2.458615
2012-04-16 05:58:18 51°13.637 2°56.019 15.3987 4.605048 31.448092 -2.458615
2012-04-16 05:58:23 51°13.638 2°56.018 15.3924 4.605048 31.448092 -2.458615
2012-04-16 05:58:28 51°13.638 2°56.018 15.3914 4.604944 31.447835 -2.458615
2012-04-16 05:58:32 51°13.638 2°56.017 15.3904 4.604944 31.447835 -2.458615
2012-04-16 05:58:38 51°13.638 2°56.018 15.3876 4.604944 31.448371 -2.458615
2012-04-16 05:58:43 51°13.638 2°56.018 15.3846 4.604944 31.448371 -2.458615
2012-04-16 05:58:48 51°13.638 2°56.018 15.3833 4.604944 31.448907 -2.458615
2012-04-16 05:58:53 51°13.638 2°56.019 15.3835 4.604841 31.448115 -2.458615
2012-04-16 05:58:58 51°13.638 2°56.018 15.3871 4.604944 31.448907 -2.458615
2012-04-16 05:59:03 51°13.638 2°56.018 15.3915 4.604944 31.448907 -2.458615
2012-04-16 05:59:08 51°13.638 2°56.019 15.3893 4.604841 31.448651 -2.458615
2012-04-16 05:59:12 51°13.638 2°56.019 15.3851 4.604841 31.448651 -2.458615
2012-04-16 05:59:17 51°13.638 2°56.018 15.3854 4.604841 31.448651 -2.458615
2012-04-16 05:59:22 51°13.638 2°56.018 15.3871 4.604737 31.448395 -2.458615
2012-04-16 05:59:27 51°13.638 2°56.019 15.3922 4.604737 31.448395 -2.458615
2012-04-16 05:59:33 51°13.638 2°56.019 15.3889 4.604737 31.448395 -2.458615
2012-04-16 05:59:38 51°13.637 2°56.019 15.3853 4.604633 31.448138 -2.458615
2012-04-16 05:59:43 51°13.637 2°56.019 15.3863 4.604633 31.448138 -2.458615
2012-04-16 05:59:48 51°13.637 2°56.019 15.3834 4.604633 31.448674 -2.458615
2012-04-16 05:59:53 51°13.637 2°56.019 15.3794 4.604737 31.449467 -2.458615
2012-04-16 05:59:58 51°13.637 2°56.019 15.3829 4.604529 31.447882 -2.458615
2012-04-16 06:00:03 51°13.637 2°56.019 15.3875 4.604529 31.447882 -2.458615
2012-04-16 06:00:08 51°13.637 2°56.019 15.3875 4.604529 31.448418 -2.458615
2012-04-16 06:00:13 51°13.637 2°56.019 15.3836 4.604426 31.447625 -2.458615
2012-04-16 06:00:18 51°13.637 2°56.019 15.379 4.604529 31.448954 -2.458615
2012-04-16 06:00:22 51°13.637 2°56.019 15.3778 4.604426 31.448162 -2.458615
2012-04-16 06:00:27 51°13.637 2°56.019 15.3777 4.604426 31.448698 -2.458615
2012-04-16 06:00:32 51°13.637 2°56.018 15.377 4.604426 31.448698 -2.458615
2012-04-16 06:00:37 51°13.637 2°56.019 15.3764 4.604426 31.448698 -2.458615
2012-04-16 06:00:42 51°13.637 2°56.019 15.374 4.604426 31.449234 -2.458615
2012-04-16 06:00:48 51°13.637 2°56.019 15.3723 4.604426 31.449234 -2.458615
2012-04-16 06:00:53 51°13.637 2°56.019 15.3683 4.604322 31.448441 -2.458615
2012-04-16 06:00:58 51°13.637 2°56.019 15.3736 4.604322 31.448978 -2.458615
2012-04-16 06:01:02 51°13.637 2°56.019 15.3774 4.604322 31.448978 -2.458615
2012-04-16 06:01:07 51°13.637 2°56.019 15.3782 4.604322 31.449514 -2.458615
2012-04-16 06:01:12 51°13.637 2°56.019 15.3792 4.604322 31.449514 -2.458615
2012-04-16 06:01:18 51°13.637 2°56.019 15.3816 4.604218 31.448721 -2.458615
2012-04-16 06:01:23 51°13.637 2°56.019 15.3759 4.604218 31.448721 -2.458615
2012-04-16 06:01:28 51°13.637 2°56.019 15.3741 4.604114 31.448465 -2.458615
2012-04-16 06:01:33 51°13.637 2°56.019 15.3762 4.604114 31.448465 -2.458615
2012-04-16 06:01:38 51°13.637 2°56.019 15.3803 4.604114 31.448465 -2.458615
2012-04-16 06:01:42 51°13.637 2°56.019 15.3769 4.604114 31.448465 -2.458615
2012-04-16 06:01:47 51°13.637 2°56.02 15.3589 4.604011 31.448208 -2.458615
2012-04-16 06:01:52 51°13.637 2°56.02 15.3732 4.604114 31.449001 -2.458615
2012-04-16 06:01:57 51°13.637 2°56.021 15.3769 4.603907 31.447952 -2.458615
2012-04-16 06:02:02 51°13.637 2°56.019 15.3752 4.603907 31.447952 -2.458615
2012-04-16 06:02:07 51°13.637 2°56.02 15.3705 4.603907 31.448488 -2.458615
2012-04-16 06:02:13 51°13.637 2°56.02 15.3664 4.604011 31.448745 -2.458615
2012-04-16 06:02:18 51°13.637 2°56.019 15.3524 4.603907 31.448488 -2.458615
2012-04-16 06:02:21 51°13.637 2°56.019 15.3815 4.603907 31.449024 -2.458615
2012-04-16 06:02:27 51°13.637 2°56.019 15.3778 4.603907 31.449024 -2.458615
2012-04-16 06:02:33 51°13.637 2°56.019 15.3734 4.603907 31.449024 -2.458615
2012-04-16 06:02:38 51°13.636 2°56.019 15.3663 4.603907 31.449024 -2.458615
2012-04-16 06:02:43 51°13.636 2°56.019 15.3718 4.603907 31.449561 -2.458615
2012-04-16 06:02:48 51°13.636 2°56.019 15.3667 4.603596 31.447183 -2.458615
2012-04-16 06:02:53 51°13.636 2°56.019 15.3876 4.603699 31.447975 -2.458615
2012-04-16 06:02:57 51°13.636 2°56.019 15.3923 4.603699 31.448512 -2.458615
2012-04-16 06:03:03 51°13.636 2°56.019 15.3862 4.603699 31.448512 -2.458615
2012-04-16 06:03:07 51°13.636 2°56.02 15.3785 4.603699 31.449048 -2.458615
2012-04-16 06:03:13 51°13.636 2°56.019 15.3748 4.603596 31.448255 -2.458615
2012-04-16 06:03:17 51°13.636 2°56.019 15.3699 4.603492 31.447999 -2.458615
2012-04-16 06:03:22 51°13.636 2°56.019 15.3719 4.603596 31.448792 -2.458615
2012-04-16 06:03:27 51°13.636 2°56.02 15.3696 4.603596 31.448792 -2.458615
2012-04-16 06:03:33 51°13.636 2°56.02 15.3696 4.603596 31.448792 -2.458615
2012-04-16 06:03:38 51°13.636 2°56.02 15.3622 4.603492 31.448535 -2.458615
2012-04-16 06:03:42 51°13.636 2°56.02 15.3638 4.603388 31.447742 -2.458615
2012-04-16 06:03:47 51°13.636 2°56.02 15.3792 4.603492 31.449071 -2.458615
2012-04-16 06:03:52 51°13.636 2°56.02 15.3771 4.603388 31.448279 -2.458615
2012-04-16 06:03:57 51°13.636 2°56.02 15.3786 4.603388 31.448815 -2.458615
2012-04-16 06:04:02 51°13.636 2°56.02 15.382 4.603388 31.448815 -2.458615
2012-04-16 06:04:08 51°13.636 2°56.021 15.383 4.603284 31.448022 -2.458615
2012-04-16 06:04:13 51°13.636 2°56.021 15.3793 4.603284 31.448559 -2.458615
2012-04-16 06:04:17 51°13.636 2°56.021 15.3778 4.603181 31.447766 -2.458615
2012-04-16 06:04:22 51°13.636 2°56.02 15.3757 4.603181 31.448302 -2.458615
2012-04-16 06:04:27 51°13.636 2°56.021 15.374 4.603181 31.448302 -2.458615
2012-04-16 06:04:32 51°13.636 2°56.02 15.3729 4.603181 31.448302 -2.458615
2012-04-16 06:04:37 51°13.636 2°56.02 15.3723 4.603181 31.448839 -2.458615
2012-04-16 06:04:42 51°13.636 2°56.021 15.3722 4.603181 31.448839 -2.458615
2012-04-16 06:04:47 51°13.636 2°56.02 15.3732 4.603077 31.448046 -2.458615
2012-04-16 06:04:53 51°13.636 2°56.02 15.3737 4.603077 31.448582 -2.458615
2012-04-16 06:04:58 51°13.636 2°56.02 15.3738 4.603077 31.448582 -2.458615
2012-04-16 06:05:03 51°13.636 2°56.02 15.3742 4.603077 31.448582 -2.458615
2012-04-16 06:05:08 51°13.636 2°56.02 15.3741 4.603077 31.449119 -2.458615
2012-04-16 06:05:13 51°13.636 2°56.02 15.373 4.602973 31.448326 -2.458615
2012-04-16 06:05:18 51°13.636 2°56.02 15.3756 4.602973 31.448862 -2.458615
2012-04-16 06:05:23 51°13.636 2°56.02 15.3705 4.602973 31.448862 -2.458615
2012-04-16 06:05:28 51°13.636 2°56.02 15.3739 4.602869 31.448069 -2.458615
2012-04-16 06:05:33 51°13.637 2°56.02 15.3722 4.602869 31.448069 -2.458615
2012-04-16 06:05:38 51°13.637 2°56.02 15.3738 4.60287 31.448606 -2.458615
2012-04-16 06:05:42 51°13.637 2°56.02 15.373 4.602766 31.448349 -2.458615
2012-04-16 06:05:48 51°13.637 2°56.019 15.3772 4.60287 31.449142 -2.458615
2012-04-16 06:05:52 51°13.637 2°56.019 15.3769 4.602766 31.448886 -2.458615
2012-04-16 06:05:58 51°13.637 2°56.019 15.3806 4.602766 31.448886 -2.458615
2012-04-16 06:06:02 51°13.637 2°56.019 15.3764 4.602766 31.448886 -2.458615
2012-04-16 06:06:07 51°13.637 2°56.019 15.3718 4.602766 31.449422 -2.458615
2012-04-16 06:06:12 51°13.637 2°56.02 15.3733 4.602766 31.449959 -2.458615
2012-04-16 06:06:17 51°13.637 2°56.019 15.3749 4.602766 31.449959 -2.458615
2012-04-16 06:06:23 51°13.637 2°56.019 15.3754 4.602662 31.449702 -2.458615
2012-04-16 06:06:28 51°13.636 2°56.019 15.374 4.602766 31.450495 -2.458615
2012-04-16 06:06:33 51°13.636 2°56.019 15.3837 4.602766 31.450495 -2.458615
2012-04-16 06:06:38 51°13.636 2°56.019 15.3784 4.602558 31.449446 -2.458615
2012-04-16 06:06:43 51°13.636 2°56.019 15.391 4.602558 31.449982 -2.458615
2012-04-16 06:06:47 51°13.637 2°56.019 15.3843 4.602558 31.449982 -2.458615
2012-04-16 06:06:52 51°13.637 2°56.019 15.3825 4.602558 31.449982 -2.458615
2012-04-16 06:06:57 51°13.637 2°56.02 15.3881 4.602662 31.451312 -2.458615
2012-04-16 06:07:03 51°13.637 2°56.019 15.3865 4.602662 31.451312 -2.458615
2012-04-16 06:07:08 51°13.638 2°56.018 15.3777 4.602455 31.450263 -2.458615
2012-04-16 06:07:13 51°13.637 2°56.02 15.3799 4.602455 31.450799 -2.458615
2012-04-16 06:07:18 51°13.637 2°56.02 15.3811 4.602351 31.450006 -2.458615
2012-04-16 06:07:22 51°13.637 2°56.02 15.3868 4.602455 31.451336 -2.458615
2012-04-16 06:07:27 51°13.637 2°56.019 15.3939 4.602247 31.44975 -2.458615
2012-04-16 06:07:32 51°13.637 2°56.019 15.3978 4.602247 31.44975 -2.458615
2012-04-16 06:07:37 51°13.637 2°56.02 15.396 4.602247 31.450286 -2.458615
2012-04-16 06:07:42 51°13.637 2°56.02 15.3966 4.602247 31.450823 -2.458615
2012-04-16 06:07:47 51°13.638 2°56.02 15.392 4.602247 31.45136 -2.458615
2012-04-16 06:07:50 51°13.638 2°56.019 15.3896 4.602247 31.451896 -2.458615
2012-04-16 06:07:57 51°13.637 2°56.02 15.3848 4.602143 31.451103 -2.458615
2012-04-16 06:08:02 51°13.636 2°56.02 15.3822 4.602143 31.451103 -2.458615
2012-04-16 06:08:07 51°13.636 2°56.019 15.3805 4.602143 31.45164 -2.458615
2012-04-16 06:08:13 51°13.636 2°56.019 15.3835 4.60204 31.451383 -2.458615
2012-04-16 06:08:18 51°13.636 2°56.02 15.3841 4.60204 31.451383 -2.458615
2012-04-16 06:08:23 51°13.636 2°56.02 15.3837 4.60204 31.45192 -2.458615
2012-04-16 06:08:28 51°13.636 2°56.019 15.3821 4.601936 31.451664 -2.458615
2012-04-16 06:08:33 51°13.636 2°56.019 15.383 4.601936 31.451664 -2.458615
2012-04-16 06:08:38 51°13.636 2°56.019 15.3833 4.601936 31.451664 -2.458615
2012-04-16 06:08:43 51°13.637 2°56.019 15.3826 4.601936 31.4522 -2.458615
2012-04-16 06:08:48 51°13.637 2°56.019 15.3836 4.601832 31.451407 -2.458615
2012-04-16 06:08:52 51°13.637 2°56.018 15.3854 4.601832 31.452481 -2.458615
2012-04-16 06:08:57 51°13.636 2°56.019 15.3813 4.601832 31.452481 -2.458615
2012-04-16 06:09:02 51°13.636 2°56.019 15.382 4.601832 31.452481 -2.458615
2012-04-16 06:09:07 51°13.636 2°56.019 15.3797 4.601728 31.452761 -2.458615
2012-04-16 06:09:12 51°13.636 2°56.019 15.3821 4.601728 31.452761 -2.458615
2012-04-16 06:09:17 51°13.636 2°56.019 15.3835 4.601728 31.453298 -2.458615
2012-04-16 06:09:22 51°13.636 2°56.02 15.3814 4.601625 31.452505 -2.458615
2012-04-16 06:09:27 51°13.636 2°56.019 15.3803 4.601728 31.453835 -2.458615
2012-04-16 06:09:33 51°13.637 2°56.019 15.3782 4.601728 31.453835 -2.458615
2012-04-16 06:09:38 51°13.637 2°56.018 15.3836 4.601625 31.453578 -2.458615
2012-04-16 06:09:42 51°13.637 2°56.018 15.3833 4.601417 31.452529 -2.458615
2012-04-16 06:09:47 51°13.637 2°56.019 15.3875 4.601521 31.453859 -2.458615
2012-04-16 06:09:52 51°13.636 2°56.018 15.3902 4.601521 31.454396 -2.458615
2012-04-16 06:09:57 51°13.636 2°56.018 15.3819 4.601521 31.454396 -2.458615
2012-04-16 06:10:02 51°13.636 2°56.018 15.3822 4.601521 31.454396 -2.458615
2012-04-16 06:10:07 51°13.636 2°56.019 15.3859 4.601417 31.454139 -2.458615
2012-04-16 06:10:13 51°13.636 2°56.018 15.3849 4.601313 31.453883 -2.458615
2012-04-16 06:10:18 51°13.636 2°56.019 15.382 4.601313 31.453883 -2.458615
2012-04-16 06:10:22 51°13.636 2°56.018 15.3877 4.60121 31.453627 -2.458615
2012-04-16 06:10:27 51°13.636 2°56.018 15.3847 4.601106 31.45337 -2.458615
2012-04-16 06:10:32 51°13.635 2°56.019 15.3889 4.601106 31.45337 -2.458615
2012-04-16 06:10:37 51°13.635 2°56.019 15.3907 4.60121 31.4547 -2.458615
2012-04-16 06:10:43 51°13.635 2°56.019 15.3929 4.60121 31.4547 -2.458615
2012-04-16 06:10:47 51°13.635 2°56.019 15.3859 4.601106 31.454444 -2.458615
2012-04-16 06:10:51 51°13.635 2°56.019 15.3866 4.601106 31.454981 -2.458615
2012-04-16 06:10:57 51°13.635 2°56.019 15.3856 4.601002 31.454725 -2.458615
2012-04-16 06:11:02 51°13.636 2°56.018 15.3817 4.601002 31.454725 -2.458615
2012-04-16 06:11:08 51°13.636 2°56.018 15.3817 4.601002 31.455262 -2.458615
2012-04-16 06:11:12 51°13.636 2°56.018 15.3833 4.601002 31.455262 -2.458615
2012-04-16 06:11:17 51°13.636 2°56.018 15.3891 4.600899 31.455005 -2.458615
2012-04-16 06:11:22 51°13.636 2°56.018 15.388 4.600899 31.455542 -2.458615
2012-04-16 06:11:28 51°13.636 2°56.019 15.383 4.600795 31.454749 -2.458615
2012-04-16 06:11:32 51°13.636 2°56.018 15.3819 4.600795 31.454749 -2.458615
2012-04-16 06:11:37 51°13.636 2°56.019 15.3837 4.600691 31.454493 -2.458615
2012-04-16 06:11:42 51°13.636 2°56.019 15.3812 4.600691 31.45503 -2.458615
2012-04-16 06:11:47 51°13.636 2°56.019 15.3794 4.600587 31.454773 -2.458615
2012-04-16 06:11:52 51°13.636 2°56.019 15.3804 4.600587 31.45531 -2.458615
2012-04-16 06:11:57 51°13.636 2°56.019 15.3846 4.600484 31.455054 -2.458615
2012-04-16 06:12:02 51°13.635 2°56.019 15.382 4.600484 31.455054 -2.458615
2012-04-16 06:12:07 51°13.635 2°56.019 15.382 4.600484 31.455054 -2.458615
2012-04-16 06:12:12 51°13.636 2°56.018 15.3806 4.600484 31.455591 -2.458615
2012-04-16 06:12:18 51°13.636 2°56.018 15.381 4.60038 31.455335 -2.458615
2012-04-16 06:12:22 51°13.635 2°56.019 15.384 4.60038 31.455872 -2.458615
2012-04-16 06:12:28 51°13.635 2°56.018 15.3859 4.600172 31.454285 -2.458615
2012-04-16 06:12:32 51°13.635 2°56.018 15.3844 4.600172 31.454285 -2.458615
2012-04-16 06:12:38 51°13.635 2°56.019 15.3797 4.600276 31.455615 -2.458615
2012-04-16 06:12:42 51°13.635 2°56.019 15.3768 4.600172 31.455359 -2.458615
2012-04-16 06:12:47 51°13.635 2°56.018 15.3771 4.600172 31.455359 -2.458615
2012-04-16 06:12:52 51°13.636 2°56.018 15.3781 4.600069 31.455103 -2.458615
2012-04-16 06:12:57 51°13.636 2°56.017 15.3779 4.599965 31.454846 -2.458615
2012-04-16 06:13:02 51°13.635 2°56.019 15.3777 4.599965 31.454846 -2.458615
2012-04-16 06:13:07 51°13.635 2°56.019 15.3773 4.600069 31.45564 -2.458615
2012-04-16 06:13:13 51°13.635 2°56.019 15.3754 4.599965 31.455384 -2.458615
2012-04-16 06:13:18 51°13.636 2°56.019 15.3744 4.599757 31.454334 -2.458615
2012-04-16 06:13:22 51°13.636 2°56.018 15.3744 4.599757 31.454871 -2.458615
2012-04-16 06:13:27 51°13.635 2°56.019 15.3945 4.599757 31.454871 -2.458615
2012-04-16 06:13:33 51°13.635 2°56.02 15.3947 4.599757 31.454871 -2.458615
2012-04-16 06:13:37 51°13.635 2°56.019 15.3895 4.599654 31.454615 -2.458615
2012-04-16 06:13:42 51°13.635 2°56.019 15.385 4.599654 31.455152 -2.458615
2012-04-16 06:13:47 51°13.636 2°56.019 15.3831 4.599654 31.455689 -2.458615
2012-04-16 06:13:52 51°13.636 2°56.019 15.381 4.599654 31.455689 -2.458615
2012-04-16 06:13:57 51°13.636 2°56.019 15.3784 4.59955 31.455433 -2.458615
2012-04-16 06:14:02 51°13.636 2°56.019 15.3775 4.59955 31.455433 -2.458615
2012-04-16 06:14:07 51°13.636 2°56.019 15.3747 4.599446 31.454639 -2.458615
2012-04-16 06:14:13 51°13.636 2°56.019 15.3781 4.599446 31.455713 -2.458615
2012-04-16 06:14:17 51°13.635 2°56.019 15.377 4.59955 31.456507 -2.458615
2012-04-16 06:14:23 51°13.636 2°56.019 15.3742 4.599446 31.455713 -2.458615
2012-04-16 06:14:28 51°13.636 2°56.019 15.3846 4.599342 31.455457 -2.458615
2012-04-16 06:14:32 51°13.636 2°56.019 15.3825 4.599342 31.455457 -2.458615
2012-04-16 06:14:38 51°13.636 2°56.019 15.203 4.599239 31.455201 -2.458615
2012-04-16 06:14:43 51°13.636 2°56.018 13.6176 4.597682 31.44652 -2.458615
2012-04-16 06:14:48 51°13.636 2°56.019 12.8424 4.598305 31.456118 -2.458615
2012-04-16 06:14:52 51°13.636 2°56.019 12.642 4.592391 31.410342 -2.458615
2012-04-16 06:14:57 51°13.636 2°56.019 12.2332 4.458786 31.168533 -2.458615
2012-04-16 06:15:03 51°13.634 2°56.018 12.0977 4.458786 31.168533 -2.458615
2012-04-16 06:15:07 51°13.633 2°56.018 12.0103 4.41598 32.482592 -2.458615
2012-04-16 06:15:12 51°13.633 2°56.018 12.0097 4.454805 34.606305 -2.458615
2012-04-16 06:15:17 51°13.634 2°56.017 11.9243 4.121554 33.035245 -2.458615
2012-04-16 06:15:22 51°13.634 2°56.018 11.892 3.875956 31.633333 -2.458615
2012-04-16 06:15:28 51°13.634 2°56.018 11.8883 3.626747 29.789814 -2.458615
2012-04-16 06:15:32 51°13.635 2°56.019 11.8396 3.626747 29.789814 -2.458615
2012-04-16 06:15:37 51°13.635 2°56.018 11.8096 3.511095 29.109605 -2.458615
2012-04-16 06:15:42 51°13.635 2°56.018 11.7654 3.374873 28.176453 -2.458615
2012-04-16 06:15:48 51°13.635 2°56.018 11.7176 3.309053 27.763799 -2.458615
2012-04-16 06:15:52 51°13.635 2°56.018 11.6867 3.23755 27.207666 -2.458615
2012-04-16 06:15:57 51°13.634 2°56.018 11.6704 3.191611 26.864431 -2.458615
2012-04-16 06:16:02 51°13.634 2°56.017 11.6039 3.191611 26.864431 -2.458615
2012-04-16 06:16:07 51°13.634 2°56.017 11.6176 3.160161 26.662283 -2.458615
2012-04-16 06:16:12 51°13.633 2°56.017 11.6345 3.138126 26.521507 -2.458615
2012-04-16 06:16:17 51°13.633 2°56.017 11.5625 3.122816 26.416319 -2.458615
2012-04-16 06:16:22 51°13.634 2°56.017 11.5455 3.107506 26.3371 -2.458615
2012-04-16 06:16:27 51°13.634 2°56.017 11.4928 3.093335 26.235435 -2.458615
2012-04-16 06:16:32 51°13.634 2°56.017 11.4659 3.093335 26.235435 -2.458615
2012-04-16 06:16:37 51°13.634 2°56.017 11.4533 3.086301 26.190798 -2.458615
2012-04-16 06:16:43 51°13.633 2°56.018 11.4807 3.084854 26.220384 -2.458615
2012-04-16 06:16:47 51°13.634 2°56.017 11.4601 3.075855 26.16146 -2.458615
2012-04-16 06:16:52 51°13.634 2°56.017 11.4233 3.073269 26.162116 -2.458615
2012-04-16 06:16:57 51°13.633 2°56.018 11.3871 3.070063 26.158771 -2.458615
2012-04-16 06:17:02 51°13.633 2°56.018 11.3797 3.070063 26.158771 -2.458615
2012-04-16 06:17:07 51°13.633 2°56.018 11.3697 3.064685 26.142905 -2.458615
2012-04-16 06:17:12 51°13.633 2°56.018 11.3498 3.060651 26.135417 -2.458615
2012-04-16 06:17:17 51°13.633 2°56.018 11.3651 3.05941 26.132876 -2.458615
2012-04-16 06:17:23 51°13.634 2°56.018 11.327 3.061272 26.164501 -2.458615
2012-04-16 06:17:27 51°13.634 2°56.019 11.3273 3.05848 26.154671 -2.458615
2012-04-16 06:17:32 51°13.634 2°56.019 11.3275 3.05848 26.154671 -2.458615
2012-04-16 06:17:37 51°13.635 2°56.019 11.2997 3.055687 26.150347 -2.458615
2012-04-16 06:17:42 51°13.635 2°56.019 11.2939 3.05455 26.15492 -2.458615
2012-04-16 06:17:48 51°13.635 2°56.019 11.3203 3.050309 26.131383 -2.458615
2012-04-16 06:17:52 51°13.635 2°56.019 11.3033 3.052171 26.160038 -2.458615
2012-04-16 06:17:57 51°13.635 2°56.019 11.2801 3.046793 26.118355 -2.458615
2012-04-16 06:18:02 51°13.635 2°56.02 11.2737 3.046793 26.118355 -2.458615
2012-04-16 06:18:08 51°13.636 2°56.02 11.2834 3.043069 26.094156 -2.458615
2012-04-16 06:18:12 51°13.636 2°56.02 11.2659 3.041725 26.091852 -2.458615
2012-04-16 06:18:17 51°13.636 2°56.02 11.2657 3.046793 26.149061 -2.458615
2012-04-16 06:18:22 51°13.636 2°56.02 11.2416 3.048448 26.170278 -2.458615
2012-04-16 06:18:27 51°13.636 2°56.02 11.2447 3.05062 26.201339 -2.458615
2012-04-16 06:18:32 51°13.636 2°56.019 11.2458 3.05062 26.201339 -2.458615
2012-04-16 06:18:37 51°13.636 2°56.019 11.2466 3.049172 26.199324 -2.458615
2012-04-16 06:18:42 51°13.636 2°56.019 11.226 3.048552 26.197139 -2.458615
2012-04-16 06:18:47 51°13.635 2°56.02 11.2157 3.047414 26.193749 -2.458615
2012-04-16 06:18:52 51°13.636 2°56.019 11.2134 3.050103 26.225443 -2.458615
2012-04-16 06:18:57 51°13.636 2°56.019 11.2026 3.049483 26.228205 -2.458615
2012-04-16 06:19:03 51°13.636 2°56.019 11.2191 3.049483 26.228205 -2.458615
2012-04-16 06:19:07 51°13.636 2°56.019 11.1859 3.049276 26.23428 -2.458615
2012-04-16 06:19:12 51°13.636 2°56.019 11.1891 3.050104 26.243995 -2.458615
2012-04-16 06:19:17 51°13.636 2°56.019 11.1577 3.048759 26.235555 -2.458615
2012-04-16 06:19:22 51°13.636 2°56.019 11.1205 3.04907 26.250266 -2.458615
2012-04-16 06:19:27 51°13.635 2°56.02 11.083 3.048346 26.24896 -2.458615
2012-04-16 06:19:32 51°13.636 2°56.019 11.0778 3.048346 26.24896 -2.458615
2012-04-16 06:19:37 51°13.635 2°56.02 10.9941 3.050311 26.276324 -2.458615
2012-04-16 06:19:43 51°13.636 2°56.02 10.9566 3.050311 26.280668 -2.458615
2012-04-16 06:19:47 51°13.636 2°56.02 10.9669 3.053001 26.314947 -2.458615
2012-04-16 06:19:52 51°13.636 2°56.02 10.9323 3.050518 26.304379 -2.458615
2012-04-16 06:19:57 51°13.635 2°56.02 10.8538 3.052277 26.336059 -2.458615
2012-04-16 06:20:02 51°13.635 2°56.02 10.7883 3.052277 26.336059 -2.458615
2012-04-16 06:20:08 51°13.636 2°56.019 10.7596 3.05176 26.354825 -2.458615
2012-04-16 06:20:12 51°13.636 2°56.019 10.7344 3.053726 26.4042 -2.458615
2012-04-16 06:20:17 51°13.635 2°56.019 10.5999 3.057243 26.470412 -2.458615
2012-04-16 06:20:22 51°13.635 2°56.019 10.4664 3.058174 26.500076 -2.458615
2012-04-16 06:20:28 51°13.635 2°56.019 10.498 3.060347 26.551781 -2.458615
2012-04-16 06:20:32 51°13.635 2°56.019 10.419 3.060347 26.551781 -2.458615
2012-04-16 06:20:37 51°13.635 2°56.018 10.3916 3.064588 26.626629 -2.458615
2012-04-16 06:20:42 51°13.635 2°56.018 10.3912 3.069036 26.70686 -2.458615
2012-04-16 06:20:47 51°13.635 2°56.019 10.3391 3.074726 26.802487 -2.458615
2012-04-16 06:20:52 51°13.635 2°56.019 10.3077 3.079278 26.911315 -2.458615
2012-04-16 06:20:57 51°13.635 2°56.019 10.2265 3.086313 27.03953 -2.458615
2012-04-16 06:21:02 51°13.635 2°56.019 10.2408 3.086313 27.03953 -2.458615
2012-04-16 06:21:07 51°13.635 2°56.019 10.1819 3.088279 27.104171 -2.458615
2012-04-16 06:21:12 51°13.635 2°56.019 10.1904 3.090762 27.175378 -2.458615
2012-04-16 06:21:17 51°13.635 2°56.019 10.1824 3.09128 27.209958 -2.458615
2012-04-16 06:21:23 51°13.635 2°56.019 10.1323 3.091487 27.244893 -2.458615
2012-04-16 06:21:27 51°13.635 2°56.019 10.1112 3.092936 27.297972 -2.458615
2012-04-16 06:21:32 51°13.635 2°56.019 10.0771 3.092936 27.297972 -2.458615
2012-04-16 06:21:37 51°13.635 2°56.019 10.0096 3.094592 27.351905 -2.458615
2012-04-16 06:21:42 51°13.635 2°56.019 9.9748 3.095627 27.394597 -2.458615
2012-04-16 06:21:47 51°13.635 2°56.02 9.9566 3.098006 27.442544 -2.458615
2012-04-16 06:21:52 51°13.635 2°56.019 9.9554 3.097282 27.453498 -2.458615
2012-04-16 06:21:57 51°13.635 2°56.02 9.9475 3.098524 27.493779 -2.458615
2012-04-16 06:22:03 51°13.636 2°56.019 9.9305 3.098524 27.493779 -2.458615
2012-04-16 06:22:08 51°13.636 2°56.018 9.9273 3.101317 27.542652 -2.458615
2012-04-16 06:22:12 51°13.635 2°56.018 9.9236 3.102662 27.589516 -2.458615
2012-04-16 06:22:17 51°13.634 2°56.019 9.9449 3.104732 27.643625 -2.458615
2012-04-16 06:22:22 51°13.635 2°56.019 9.9164 3.106077 27.683957 -2.458615
2012-04-16 06:22:28 51°13.635 2°56.019 9.8961 3.107319 27.716555 -2.458615
2012-04-16 06:22:32 51°13.635 2°56.02 9.8771 3.107319 27.716555 -2.458615
2012-04-16 06:22:37 51°13.635 2°56.019 9.8915 3.106284 27.719955 -2.458615
2012-04-16 06:22:42 51°13.635 2°56.02 9.8866 3.106802 27.737985 -2.458615
2012-04-16 06:22:47 51°13.635 2°56.021 9.9 3.105457 27.736294 -2.458615
2012-04-16 06:22:52 51°13.635 2°56.02 9.9067 3.104216 27.732899 -2.458615
2012-04-16 06:22:57 51°13.635 2°56.02 9.8963 3.104733 27.744821 -2.458615
2012-04-16 06:23:02 51°13.635 2°56.02 9.8972 3.104733 27.744821 -2.458615
2012-04-16 06:23:07 51°13.635 2°56.02 9.8948 3.104733 27.755735 -2.458615
2012-04-16 06:23:12 51°13.635 2°56.02 9.9017 3.10494 27.769385 -2.458615
2012-04-16 06:23:18 51°13.635 2°56.02 9.9016 3.102871 27.75372 -2.458615
2012-04-16 06:23:22 51°13.635 2°56.02 9.8827 3.103285 27.757809 -2.458615
2012-04-16 06:23:27 51°13.635 2°56.019 9.8683 3.101837 27.74145 -2.458615
2012-04-16 06:23:32 51°13.635 2°56.02 9.856 3.101837 27.74145 -2.458615
2012-04-16 06:23:37 51°13.635 2°56.02 9.8568 3.10194 27.743154 -2.458615
2012-04-16 06:23:42 51°13.635 2°56.021 9.8516 3.10101 27.738049 -2.458615
2012-04-16 06:23:47 51°13.636 2°56.02 9.8426 3.099768 27.727146 -2.458615
2012-04-16 06:23:52 51°13.635 2°56.019 9.8413 3.100182 27.731917 -2.458615
2012-04-16 06:23:57 51°13.635 2°56.019 9.8441 3.098837 27.725449 -2.458615
2012-04-16 06:24:03 51°13.635 2°56.019 9.8484 3.098837 27.725449 -2.458615
2012-04-16 06:24:08 51°13.635 2°56.019 9.8347 3.099975 27.74421 -2.458615
2012-04-16 06:24:12 51°13.635 2°56.019 9.874 3.100596 27.757865 -2.458615
2012-04-16 06:24:17 51°13.635 2°56.019 9.8578 3.100389 27.764024 -2.458615
2012-04-16 06:24:22 51°13.636 2°56.019 9.896 3.100596 27.771545 -2.458615
2012-04-16 06:24:27 51°13.636 2°56.02 9.8824 3.100286 27.771896 -2.458615
2012-04-16 06:24:32 51°13.636 2°56.02 9.8905 3.100286 27.771896 -2.458615
2012-04-16 06:24:37 51°13.636 2°56.02 9.8726 3.100389 27.776343 -2.458615
2012-04-16 06:24:42 51°13.636 2°56.02 9.8324 3.097596 27.750066 -2.458615
2012-04-16 06:24:48 51°13.635 2°56.02 9.8301 3.090666 27.678749 -2.458615
2012-04-16 06:24:52 51°13.635 2°56.02 9.8192 3.087666 27.643621 -2.458615
2012-04-16 06:24:57 51°13.635 2°56.02 9.822 3.085907 27.618063 -2.458615
2012-04-16 06:25:02 51°13.636 2°56.02 9.8237 3.085907 27.618063 -2.458615
2012-04-16 06:25:07 51°13.636 2°56.02 9.7926 3.083838 27.592173 -2.458615
2012-04-16 06:25:12 51°13.636 2°56.021 9.8064 3.081459 27.570017 -2.458615
2012-04-16 06:25:17 51°13.635 2°56.02 9.8009 3.076184 27.529412 -2.458615
2012-04-16 06:25:22 51°13.635 2°56.02 9.8024 3.074219 27.519479 -2.458615
2012-04-16 06:25:27 51°13.636 2°56.02 9.8029 3.072357 27.506495 -2.458615
2012-04-16 06:25:32 51°13.635 2°56.02 9.8034 3.072357 27.506495 -2.458615
2012-04-16 06:25:37 51°13.635 2°56.02 9.793 3.071736 27.509175 -2.458615
2012-04-16 06:25:42 51°13.635 2°56.019 9.8028 3.069771 27.495839 -2.458615
2012-04-16 06:25:47 51°13.635 2°56.02 9.8145 3.066875 27.473289 -2.458615
2012-04-16 06:25:52 51°13.635 2°56.019 9.8021 3.063151 27.440513 -2.458615
2012-04-16 06:25:58 51°13.634 2°56.019 9.8192 3.063668 27.44834 -2.458615
2012-04-16 06:26:03 51°13.634 2°56.019 9.8401 3.063668 27.44834 -2.458615
2012-04-16 06:26:07 51°13.635 2°56.018 9.8422 3.056945 27.383176 -2.458615
2012-04-16 06:26:12 51°13.634 2°56.019 9.8317 3.054359 27.358949 -2.458615
2012-04-16 06:26:17 51°13.635 2°56.019 9.835 3.047015 27.28632 -2.458615
2012-04-16 06:26:23 51°13.635 2°56.019 9.8385 3.044533 27.26043 -2.458615
2012-04-16 06:26:27 51°13.635 2°56.019 9.8296 3.042154 27.235567 -2.458615
2012-04-16 06:26:32 51°13.635 2°56.019 9.8385 3.042154 27.235567 -2.458615
2012-04-16 06:26:37 51°13.635 2°56.019 9.8396 3.04143 27.224379 -2.458615
2012-04-16 06:26:42 51°13.635 2°56.019 9.8526 3.038947 27.193137 -2.458615
2012-04-16 06:26:48 51°13.635 2°56.019 9.8471 3.038223 27.183972 -2.458615
2012-04-16 06:26:52 51°13.635 2°56.019 9.8534 3.038327 27.184324 -2.458615
2012-04-16 06:26:57 51°13.635 2°56.019 9.8462 3.037499 27.174809 -2.458615
2012-04-16 06:27:02 51°13.635 2°56.019 9.8409 3.037499 27.174809 -2.458615
2012-04-16 06:27:08 51°13.635 2°56.019 9.83 3.038016 27.179918 -2.458615
2012-04-16 06:27:12 51°13.635 2°56.019 9.8097 3.036568 27.164275 -2.458615
2012-04-16 06:27:17 51°13.635 2°56.019 9.7952 3.036672 27.162617 -2.458615
2012-04-16 06:27:22 51°13.635 2°56.018 9.8007 3.036775 27.160289 -2.458615
2012-04-16 06:27:27 51°13.635 2°56.019 9.7946 3.03512 27.141941 -2.458615
2012-04-16 06:27:32 51°13.636 2°56.019 9.7892 3.03512 27.141941 -2.458615
2012-04-16 06:27:37 51°13.635 2°56.019 9.782 3.034707 27.139195 -2.458615
2012-04-16 06:27:42 51°13.636 2°56.019 9.7829 3.032948 27.12518 -2.458615
2012-04-16 06:27:47 51°13.636 2°56.019 9.7826 3.030569 27.109715 -2.458615
2012-04-16 06:27:52 51°13.635 2°56.019 9.7857 3.026743 27.079275 -2.458615
2012-04-16 06:27:58 51°13.635 2°56.019 9.7961 3.023123 27.0502 -2.458615
2012-04-16 06:28:02 51°13.635 2°56.018 9.7859 3.023123 27.0502 -2.458615
2012-04-16 06:28:07 51°13.635 2°56.019 9.7793 3.021054 27.033106 -2.458615
2012-04-16 06:28:12 51°13.635 2°56.019 9.7887 3.018882 27.017656 -2.458615
2012-04-16 06:28:17 51°13.635 2°56.019 9.7989 3.015469 26.989273 -2.458615
2012-04-16 06:28:23 51°13.635 2°56.019 9.8188 3.012884 26.965063 -2.458615
2012-04-16 06:28:27 51°13.635 2°56.019 9.8202 3.011643 26.954134 -2.458615
2012-04-16 06:28:32 51°13.635 2°56.019 9.8386 3.011643 26.954134 -2.458615
2012-04-16 06:28:37 51°13.635 2°56.019 9.8436 3.010919 26.948314 -2.458615
2012-04-16 06:28:43 51°13.636 2°56.019 9.8493 3.011125 26.952355 -2.458615
2012-04-16 06:28:47 51°13.636 2°56.019 9.8493 3.011022 26.950667 -2.458615
2012-04-16 06:28:52 51°13.636 2°56.019 9.8488 3.011125 26.948361 -2.458615
2012-04-16 06:28:57 51°13.636 2°56.019 9.8482 3.010815 26.938642 -2.458615
2012-04-16 06:29:02 51°13.636 2°56.019 9.8512 3.010815 26.938642 -2.458615
2012-04-16 06:29:08 51°13.636 2°56.019 9.8541 3.010918 26.931684 -2.458615
2012-04-16 06:29:12 51°13.636 2°56.019 9.8532 3.010711 26.922332 -2.458615
2012-04-16 06:29:17 51°13.636 2°56.02 9.8535 3.010918 26.917732 -2.458615
2012-04-16 06:29:22 51°13.636 2°56.02 9.8407 3.010815 26.912728 -2.458615
2012-04-16 06:29:27 51°13.636 2°56.02 9.8351 3.011539 26.917215 -2.458615
2012-04-16 06:29:32 51°13.636 2°56.02 9.8303 3.011539 26.917215 -2.458615
2012-04-16 06:29:37 51°13.636 2°56.02 9.8216 3.012159 26.922009 -2.458615
2012-04-16 06:29:42 51°13.636 2°56.02 9.8296 3.012676 26.925118 -2.458615
2012-04-16 06:29:47 51°13.636 2°56.02 9.8297 3.012469 26.92175 -2.458615
2012-04-16 06:29:52 51°13.637 2°56.02 9.8345 3.012469 26.922414 -2.458615
2012-04-16 06:29:57 51°13.636 2°56.02 9.8117 3.01309 26.930527 -2.458615
2012-04-16 06:30:02 51°13.636 2°56.02 9.8073 3.01309 26.930527 -2.458615
2012-04-16 06:30:07 51°13.637 2°56.02 9.806 3.013814 26.94232 -2.458615
2012-04-16 06:30:12 51°13.637 2°56.02 9.8084 3.013607 26.944931 -2.458615
2012-04-16 06:30:18 51°13.636 2°56.02 9.8076 3.013504 26.94657 -2.458615
2012-04-16 06:30:23 51°13.637 2°56.02 9.8038 3.013711 26.949276 -2.458615
2012-04-16 06:30:27 51°13.637 2°56.019 9.8038 3.013504 26.94657 -2.458615
2012-04-16 06:30:32 51°13.637 2°56.02 9.8011 3.013504 26.94657 -2.458615
2012-04-16 06:30:37 51°13.637 2°56.019 9.7974 3.013297 26.950513 -2.458615
2012-04-16 06:30:42 51°13.638 2°56.019 9.7954 3.012987 26.952771 -2.458615
2012-04-16 06:30:47 51°13.637 2°56.02 9.7949 3.012987 26.955433 -2.458615
2012-04-16 06:30:52 51°13.636 2°56.02 9.7927 3.012677 26.953034 -2.458615
2012-04-16 06:30:57 51°13.637 2°56.02 9.7864 3.01247 26.953654 -2.458615
2012-04-16 06:31:03 51°13.637 2°56.02 9.7867 3.01247 26.953654 -2.458615
2012-04-16 06:31:08 51°13.636 2°56.02 9.7807 3.01247 26.95565 -2.458615
2012-04-16 06:31:12 51°13.636 2°56.02 9.7888 3.012677 26.959024 -2.458615
2012-04-16 06:31:17 51°13.636 2°56.02 9.7798 3.011953 26.954536 -2.458615
2012-04-16 06:31:22 51°13.636 2°56.02 9.7897 3.012263 26.958933 -2.458615
2012-04-16 06:31:28 51°13.637 2°56.02 9.7853 3.01247 26.962974 -2.458615
2012-04-16 06:31:32 51°13.636 2°56.02 9.7919 3.01247 26.962974 -2.458615
2012-04-16 06:31:37 51°13.636 2°56.02 9.7829 3.011746 26.957154 -2.458615
2012-04-16 06:31:42 51°13.636 2°56.02 9.7809 3.012263 26.965593 -2.458615
2012-04-16 06:31:47 51°13.636 2°56.019 9.7819 3.01247 26.968969 -2.458615
2012-04-16 06:31:52 51°13.636 2°56.02 9.7858 3.012677 26.97168 -2.458615
2012-04-16 06:31:57 51°13.637 2°56.019 9.7776 3.012056 26.966214 -2.458615
2012-04-16 06:32:02 51°13.637 2°56.02 9.7802 3.012056 26.966214 -2.458615
2012-04-16 06:32:07 51°13.636 2°56.02 9.7759 3.01216 26.96657 -2.458615
2012-04-16 06:32:12 51°13.636 2°56.019 9.7837 3.011849 26.963504 -2.458615
2012-04-16 06:32:18 51°13.636 2°56.02 9.7776 3.011746 26.96448 -2.458615
2012-04-16 06:32:22 51°13.636 2°56.019 9.7779 3.011953 26.968524 -2.458615
2012-04-16 06:32:27 51°13.636 2°56.02 9.7722 3.011539 26.965102 -2.458615
2012-04-16 06:32:32 51°13.637 2°56.019 9.7795 3.011539 26.965102 -2.458615
2012-04-16 06:32:37 51°13.637 2°56.019 9.7795 3.011643 26.96679 -2.458615
2012-04-16 06:32:42 51°13.636 2°56.019 9.7789 3.011643 26.967457 -2.458615
2012-04-16 06:32:47 51°13.636 2°56.019 9.7693 3.012056 26.971545 -2.458615
2012-04-16 06:32:52 51°13.637 2°56.019 9.7703 3.011436 26.965412 -2.458615
2012-04-16 06:32:57 51°13.636 2°56.019 9.7639 3.011746 26.969812 -2.458615
2012-04-16 06:33:02 51°13.636 2°56.019 9.7635 3.011746 26.969812 -2.458615
2012-04-16 06:33:07 51°13.636 2°56.019 9.7672 3.011332 26.967056 -2.458615
2012-04-16 06:33:12 51°13.636 2°56.019 9.7583 3.011332 26.966389 -2.458615
2012-04-16 06:33:17 51°13.637 2°56.018 9.7622 3.011643 26.969456 -2.458615
2012-04-16 06:33:22 51°13.636 2°56.018 9.7573 3.01185 26.973501 -2.458615
2012-04-16 06:33:27 51°13.637 2°56.018 9.7556 3.011746 26.974478 -2.458615
2012-04-16 06:33:32 51°13.637 2°56.018 9.765 3.011746 26.974478 -2.458615
2012-04-16 06:33:37 51°13.637 2°56.018 9.749 3.01247 26.983637 -2.458615
2012-04-16 06:33:42 51°13.637 2°56.018 9.7394 3.012574 26.985993 -2.458615
2012-04-16 06:33:47 51°13.637 2°56.019 9.7272 3.012677 26.989685 -2.458615
2012-04-16 06:33:52 51°13.636 2°56.019 9.728 3.012884 26.993065 -2.458615
2012-04-16 06:33:57 51°13.636 2°56.019 9.7208 3.013298 26.999159 -2.458615
2012-04-16 06:34:02 51°13.636 2°56.019 9.7076 3.013298 26.999159 -2.458615
2012-04-16 06:34:07 51°13.636 2°56.019 9.7089 3.013815 27.005609 -2.458615
2012-04-16 06:34:12 51°13.637 2°56.019 9.7032 3.013918 27.007968 -2.458615
2012-04-16 06:34:17 51°13.637 2°56.019 9.703 3.014022 27.014336 -2.458615
2012-04-16 06:34:22 51°13.637 2°56.019 9.7068 3.014539 27.025469 -2.458615
2012-04-16 06:34:27 51°13.637 2°56.018 9.7057 3.014539 27.030151 -2.458615
2012-04-16 06:34:32 51°13.637 2°56.019 9.7121 3.014539 27.030151 -2.458615
2012-04-16 06:34:37 51°13.637 2°56.019 9.7191 3.01578 27.04779 -2.458615
2012-04-16 06:34:42 51°13.637 2°56.019 9.7211 3.01578 27.053147 -2.458615
2012-04-16 06:34:47 51°13.637 2°56.019 9.7221 3.016401 27.063983 -2.458615
2012-04-16 06:34:52 51°13.637 2°56.019 9.7226 3.016815 27.070762 -2.458615
2012-04-16 06:34:58 51°13.637 2°56.019 9.7169 3.016711 27.071749 -2.458615
2012-04-16 06:35:03 51°13.637 2°56.018 9.7134 3.016711 27.071749 -2.458615
2012-04-16 06:35:07 51°13.636 2°56.019 9.7115 3.016711 27.071749 -2.458615
2012-04-16 06:35:12 51°13.636 2°56.019 9.7075 3.015884 27.061542 -2.458615
2012-04-16 06:35:17 51°13.636 2°56.019 9.7025 3.015677 27.057483 -2.458615
2012-04-16 06:35:22 51°13.636 2°56.019 9.7008 3.015987 27.058546 -2.458615
2012-04-16 06:35:27 51°13.636 2°56.019 9.6967 3.016091 27.05823 -2.458615
2012-04-16 06:35:32 51°13.636 2°56.019 9.6889 3.016091 27.05823 -2.458615
2012-04-16 06:35:37 51°13.636 2°56.019 9.6941 3.015987 27.058546 -2.458615
2012-04-16 06:35:42 51°13.636 2°56.019 9.6893 3.016298 27.062959 -2.458615
2012-04-16 06:35:48 51°13.636 2°56.019 9.6828 3.016504 27.067689 -2.458615
2012-04-16 06:35:52 51°13.636 2°56.019 9.6786 3.017022 27.074152 -2.458615
2012-04-16 06:35:57 51°13.636 2°56.019 9.6799 3.017332 27.081921 -2.458615
2012-04-16 06:36:02 51°13.636 2°56.019 9.6771 3.017332 27.081921 -2.458615
2012-04-16 06:36:07 51°13.636 2°56.019 9.6769 3.017229 27.08358 -2.458615
2012-04-16 06:36:12 51°13.636 2°56.019 9.6718 3.017539 27.089339 -2.458615
2012-04-16 06:36:17 51°13.635 2°56.019 9.6679 3.018159 27.097503 -2.458615
2012-04-16 06:36:22 51°13.636 2°56.019 9.6672 3.018573 27.10429 -2.458615
2012-04-16 06:36:27 51°13.635 2°56.019 9.6677 3.018366 27.104255 -2.458615
2012-04-16 06:36:32 51°13.635 2°56.019 9.6635 3.018366 27.104255 -2.458615
2012-04-16 06:36:37 51°13.635 2°56.019 9.6699 3.01878 27.111716 -2.458615
2012-04-16 06:36:42 51°13.635 2°56.019 9.6662 3.019504 27.12091 -2.458615
2012-04-16 06:36:47 51°13.636 2°56.019 9.6617 3.019194 27.119179 -2.458615
2012-04-16 06:36:52 51°13.635 2°56.019 9.663 3.019608 27.126644 -2.458615
2012-04-16 06:36:58 51°13.636 2°56.019 9.6642 3.020021 27.132765 -2.458615
2012-04-16 06:37:02 51°13.635 2°56.019 9.6641 3.020021 27.132765 -2.458615
2012-04-16 06:37:07 51°13.635 2°56.019 9.6658 3.020228 27.136162 -2.458615
2012-04-16 06:37:12 51°13.635 2°56.019 9.6667 3.020021 27.134783 -2.458615
2012-04-16 06:37:17 51°13.635 2°56.019 9.6621 3.020332 27.139207 -2.458615
2012-04-16 06:37:23 51°13.635 2°56.019 9.6626 3.020021 27.137476 -2.458615
2012-04-16 06:37:27 51°13.635 2°56.019 9.6604 3.019815 27.136097 -2.458615
2012-04-16 06:37:32 51°13.635 2°56.019 9.6584 3.019815 27.136097 -2.458615
2012-04-16 06:37:37 51°13.636 2°56.019 9.6562 3.019918 27.137796 -2.458615
2012-04-16 06:37:42 51°13.636 2°56.019 9.6511 3.020125 27.139175 -2.458615
2012-04-16 06:37:47 51°13.636 2°56.018 9.6519 3.019711 27.135071 -2.458615
2012-04-16 06:37:52 51°13.636 2°56.018 9.6514 3.019918 27.137796 -2.458615
2012-04-16 06:37:57 51°13.636 2°56.019 9.6533 3.019504 27.135038 -2.458615
2012-04-16 06:38:02 51°13.635 2°56.019 9.6479 3.019504 27.135038 -2.458615
2012-04-16 06:38:08 51°13.635 2°56.019 9.6475 3.019815 27.13879 -2.458615
2012-04-16 06:38:12 51°13.635 2°56.019 9.6426 3.020021 27.142188 -2.458615
2012-04-16 06:38:17 51°13.635 2°56.019 9.6388 3.020642 27.151713 -2.458615
2012-04-16 06:38:22 51°13.635 2°56.019 9.6311 3.02209 27.167429 -2.458615
2012-04-16 06:38:27 51°13.635 2°56.02 9.6288 3.022504 27.172209 -2.458615
2012-04-16 06:38:32 51°13.635 2°56.019 9.6288 3.022504 27.172209 -2.458615
2012-04-16 06:38:37 51°13.635 2°56.019 9.6322 3.022814 27.176637 -2.458615
2012-04-16 06:38:42 51°13.635 2°56.019 9.6304 3.023331 27.182444 -2.458615
2012-04-16 06:38:47 51°13.635 2°56.019 9.6272 3.023331 27.185143 -2.458615
2012-04-16 06:38:52 51°13.636 2°56.019 9.6184 3.023331 27.188517 -2.458615
2012-04-16 06:38:57 51°13.635 2°56.019 9.6159 3.023331 27.191892 -2.458615
2012-04-16 06:39:02 51°13.635 2°56.019 9.6196 3.023331 27.191892 -2.458615
2012-04-16 06:39:07 51°13.635 2°56.019 9.6207 3.021987 27.181242 -2.458615
2012-04-16 06:39:12 51°13.635 2°56.019 9.619 3.020332 27.166835 -2.458615
2012-04-16 06:39:17 51°13.635 2°56.019 9.6234 3.017436 27.138083 -2.458615
2012-04-16 06:39:23 51°13.636 2°56.019 9.6397 3.01392 27.104521 -2.458615
2012-04-16 06:39:27 51°13.636 2°56.019 9.6538 3.009162 27.06066 -2.458615
2012-04-16 06:39:32 51°13.635 2°56.019 9.6577 3.009162 27.06066 -2.458615
2012-04-16 06:39:37 51°13.635 2°56.019 9.6559 3.004404 27.015457 -2.458615
2012-04-16 06:39:42 51°13.636 2°56.019 9.6575 3.002336 26.9956 -2.458615
2012-04-16 06:39:47 51°13.636 2°56.019 9.6622 3.000474 26.977798 -2.458615
2012-04-16 06:39:52 51°13.636 2°56.019 9.6586 2.999544 26.967892 -2.458615
2012-04-16 06:39:57 51°13.636 2°56.019 9.6498 2.99913 26.95843 -2.458615
2012-04-16 06:40:02 51°13.636 2°56.018 9.6417 2.99913 26.95843 -2.458615
2012-04-16 06:40:08 51°13.636 2°56.019 9.6426 2.999026 26.950043 -2.458615
2012-04-16 06:40:12 51°13.635 2°56.02 9.6447 2.998923 26.945004 -2.458615
2012-04-16 06:40:17 51°13.635 2°56.019 9.643 2.998923 26.941661 -2.458615
2012-04-16 06:40:22 51°13.636 2°56.019 9.6369 2.998612 26.936579 -2.458615
2012-04-16 06:40:27 51°13.636 2°56.019 9.6386 2.998095 26.930785 -2.458615
2012-04-16 06:40:32 51°13.636 2°56.019 9.6344 2.998095 26.930785 -2.458615
2012-04-16 06:40:37 51°13.636 2°56.019 9.6293 2.997682 26.92802 -2.458615
2012-04-16 06:40:42 51°13.636 2°56.019 9.6262 2.996854 26.923159 -2.458615
2012-04-16 06:40:47 51°13.636 2°56.019 9.6279 2.996648 26.922444 -2.458615
2012-04-16 06:40:52 51°13.636 2°56.019 9.6281 2.996234 26.919679 -2.458615
2012-04-16 06:40:57 51°13.636 2°56.019 9.6247 2.996234 26.922352 -2.458615
2012-04-16 06:41:02 51°13.636 2°56.019 9.6265 2.996234 26.922352 -2.458615
2012-04-16 06:41:07 51°13.636 2°56.019 9.63 2.996648 26.92846 -2.458615
2012-04-16 06:41:12 51°13.636 2°56.019 9.6338 2.996751 26.930154 -2.458615
2012-04-16 06:41:18 51°13.636 2°56.019 9.6343 2.996648 26.93314 -2.458615
2012-04-16 06:41:22 51°13.636 2°56.019 9.6321 2.996441 26.931757 -2.458615
2012-04-16 06:41:27 51°13.636 2°56.019 9.6451 2.996544 26.934121 -2.458615
2012-04-16 06:41:32 51°13.636 2°56.019 9.6396 2.996544 26.934121 -2.458615
2012-04-16 06:41:37 51°13.636 2°56.019 9.6412 2.996544 26.93479 -2.458615
2012-04-16 06:41:42 51°13.636 2°56.019 9.6447 2.996648 26.935147 -2.458615
2012-04-16 06:41:47 51°13.636 2°56.019 9.6446 2.997061 26.937912 -2.458615
2012-04-16 06:41:52 51°13.636 2°56.019 9.648 2.997061 26.937244 -2.458615
2012-04-16 06:41:57 51°13.636 2°56.019 9.6456 2.996958 26.935549 -2.458615
2012-04-16 06:42:03 51°13.636 2°56.019 9.6518 2.996958 26.935549 -2.458615
2012-04-16 06:42:07 51°13.636 2°56.019 9.6463 2.997061 26.934568 -2.458615
2012-04-16 06:42:12 51°13.636 2°56.019 9.6477 2.996751 26.930154 -2.458615
2012-04-16 06:42:17 51°13.636 2°56.019 9.6485 2.997268 26.933276 -2.458615
2012-04-16 06:42:22 51°13.636 2°56.019 9.6521 2.996648 26.925786 -2.458615
2012-04-16 06:42:27 51°13.636 2°56.019 9.6538 2.996751 26.925475 -2.458615
2012-04-16 06:42:32 51°13.636 2°56.019 9.648 2.996751 26.925475 -2.458615
2012-04-16 06:42:37 51°13.636 2°56.019 9.6508 2.996854 26.925832 -2.458615
2012-04-16 06:42:42 51°13.636 2°56.018 9.6571 2.996854 26.925163 -2.458615
2012-04-16 06:42:48 51°13.636 2°56.018 9.6418 2.996854 26.925832 -2.458615
2012-04-16 06:42:52 51°13.636 2°56.018 9.6503 2.997165 26.92824 -2.458615
2012-04-16 06:42:57 51°13.636 2°56.019 9.6389 2.997165 26.926903 -2.458615
2012-04-16 06:43:02 51°13.636 2°56.018 9.646 2.997165 26.926903 -2.458615
2012-04-16 06:43:07 51°13.636 2°56.018 9.6378 2.997061 26.926546 -2.458615
2012-04-16 06:43:12 51°13.636 2°56.018 9.6364 2.997682 26.93203 -2.458615
2012-04-16 06:43:17 51°13.636 2°56.018 9.6414 2.997785 26.931719 -2.458615
2012-04-16 06:43:22 51°13.636 2°56.018 9.6425 2.998095 26.936132 -2.458615
2012-04-16 06:43:27 51°13.636 2°56.019 9.6344 2.998095 26.937469 -2.458615
2012-04-16 06:43:32 51°13.636 2°56.019 9.6397 2.998095 26.937469 -2.458615
2012-04-16 06:43:37 51°13.636 2°56.019 9.6406 2.997992 26.937781 -2.458615
2012-04-16 06:43:42 51°13.636 2°56.019 9.6416 2.998199 26.942507 -2.458615
2012-04-16 06:43:47 51°13.636 2°56.019 9.6368 2.998406 26.945896 -2.458615
2012-04-16 06:43:52 51°13.636 2°56.019 9.6325 2.998509 26.946922 -2.458615
2012-04-16 06:43:57 51°13.636 2°56.019 9.6353 2.998819 26.949999 -2.458615
2012-04-16 06:44:02 51°13.636 2°56.019 9.637 2.998819 26.949999 -2.458615
2012-04-16 06:44:07 51°13.636 2°56.019 9.6321 2.99913 26.953076 -2.458615
2012-04-16 06:44:12 51°13.636 2°56.019 9.6267 2.999026 26.953389 -2.458615
2012-04-16 06:44:17 51°13.636 2°56.019 9.6261 2.999337 26.956466 -2.458615
2012-04-16 06:44:22 51°13.636 2°56.019 9.6316 2.999647 26.960882 -2.458615
2012-04-16 06:44:27 51°13.636 2°56.019 9.6268 2.999854 26.964273 -2.458615
2012-04-16 06:44:32 51°13.636 2°56.019 9.6299 2.999854 26.964273 -2.458615
2012-04-16 06:44:37 51°13.636 2°56.019 9.6249 2.999957 26.965969 -2.458615
2012-04-16 06:44:42 51°13.636 2°56.019 9.6223 3.000267 26.969716 -2.458615
2012-04-16 06:44:48 51°13.636 2°56.019 9.6246 3.000681 26.97516 -2.458615
2012-04-16 06:44:52 51°13.636 2°56.019 9.6248 3.001095 26.981275 -2.458615
2012-04-16 06:44:57 51°13.636 2°56.019 9.6227 3.001198 26.982971 -2.458615
2012-04-16 06:45:02 51°13.636 2°56.019 9.6248 3.001198 26.982971 -2.458615
2012-04-16 06:45:07 51°13.636 2°56.019 9.6217 3.001612 26.987746 -2.458615
2012-04-16 06:45:12 51°13.636 2°56.019 9.6196 3.002026 26.991851 -2.458615
2012-04-16 06:45:17 51°13.636 2°56.019 9.6185 3.002026 26.993192 -2.458615
2012-04-16 06:45:22 51°13.636 2°56.019 9.6165 3.002646 27.000691 -2.458615
2012-04-16 06:45:27 51°13.636 2°56.019 9.6125 3.002543 27.000336 -2.458615
2012-04-16 06:45:32 51°13.636 2°56.019 9.6148 3.002543 27.000336 -2.458615
2012-04-16 06:45:37 51°13.636 2°56.02 9.6064 3.002853 27.003415 -2.458615
2012-04-16 06:45:42 51°13.636 2°56.02 9.6056 3.00337 27.009218 -2.458615
2012-04-16 06:45:47 51°13.636 2°56.019 9.6052 3.003784 27.014666 -2.458615
2012-04-16 06:45:52 51°13.636 2°56.019 9.6055 3.004611 27.022879 -2.458615
2012-04-16 06:45:58 51°13.636 2°56.02 9.6011 3.005129 27.029355 -2.458615
2012-04-16 06:46:02 51°13.636 2°56.019 9.6027 3.005129 27.029355 -2.458615
2012-04-16 06:46:07 51°13.636 2°56.02 9.6021 3.006059 27.039939 -2.458615
2012-04-16 06:46:12 51°13.636 2°56.02 9.6038 3.006887 27.050842 -2.458615
2012-04-16 06:46:17 51°13.636 2°56.02 9.5998 3.007921 27.063129 -2.458615
2012-04-16 06:46:23 51°13.636 2°56.019 9.6034 3.008438 27.070283 -2.458615
2012-04-16 06:46:27 51°13.636 2°56.019 9.6015 3.009162 27.078146 -2.458615
2012-04-16 06:46:32 51°13.636 2°56.019 9.6008 3.009162 27.078146 -2.458615
2012-04-16 06:46:37 51°13.636 2°56.019 9.6007 3.009783 27.086329 -2.458615
2012-04-16 06:46:42 51°13.636 2°56.019 9.604 3.010403 27.09384 -2.458615
2012-04-16 06:46:48 51°13.637 2°56.019 9.5985 3.010921 27.098977 -2.458615
2012-04-16 06:46:52 51°13.636 2°56.019 9.5958 3.011748 27.107871 -2.458615
2012-04-16 06:46:57 51°13.636 2°56.019 9.5968 3.012369 27.114036 -2.458615
2012-04-16 06:47:02 51°13.637 2°56.019 9.5908 3.012369 27.114036 -2.458615
2012-04-16 06:47:08 51°13.637 2°56.019 9.5923 3.012782 27.11882 -2.458615
2012-04-16 06:47:12 51°13.637 2°56.019 9.5893 3.012886 27.119848 -2.458615
2012-04-16 06:47:17 51°13.637 2°56.019 9.5894 3.012989 27.120875 -2.458615
2012-04-16 06:47:22 51°13.637 2°56.019 9.5865 3.01361 27.127715 -2.458615
2012-04-16 06:47:27 51°13.637 2°56.019 9.586 3.014127 27.134203 -2.458615
2012-04-16 06:47:32 51°13.637 2°56.019 9.583 3.014127 27.134203 -2.458615
2012-04-16 06:47:37 51°13.637 2°56.019 9.5851 3.015058 27.144802 -2.458615
2012-04-16 06:47:42 51°13.637 2°56.019 9.5842 3.015678 27.152994 -2.458615
2012-04-16 06:47:47 51°13.637 2°56.018 9.5852 3.016195 27.158809 -2.458615
2012-04-16 06:47:52 51°13.637 2°56.018 9.5807 3.017126 27.168737 -2.458615
2012-04-16 06:47:57 51°13.637 2°56.018 9.5802 3.017747 27.176933 -2.458615
2012-04-16 06:48:02 51°13.636 2°56.018 9.5799 3.017747 27.176933 -2.458615
2012-04-16 06:48:07 51°13.636 2°56.018 9.5802 3.018678 27.187539 -2.458615
2012-04-16 06:48:12 51°13.637 2°56.018 9.5811 3.019609 27.198146 -2.458615
2012-04-16 06:48:17 51°13.637 2°56.018 9.5796 3.020643 27.209107 -2.458615
2012-04-16 06:48:23 51°13.637 2°56.018 9.5771 3.021574 27.21904 -2.458615
2012-04-16 06:48:27 51°13.637 2°56.018 9.5806 3.022608 27.230003 -2.458615
2012-04-16 06:48:32 51°13.637 2°56.018 9.5766 3.022608 27.230003 -2.458615
2012-04-16 06:48:37 51°13.637 2°56.018 9.5724 3.023332 27.238558 -2.458615
2012-04-16 06:48:42 51°13.637 2°56.018 9.5711 3.024159 27.246788 -2.458615
2012-04-16 06:48:47 51°13.637 2°56.018 9.5691 3.025194 27.257753 -2.458615
2012-04-16 06:48:52 51°13.636 2°56.018 9.5683 3.026021 27.266662 -2.458615
2012-04-16 06:48:57 51°13.636 2°56.018 9.5653 3.026849 27.275572 -2.458615
2012-04-16 06:49:02 51°13.637 2°56.018 9.5659 3.026849 27.275572 -2.458615
2012-04-16 06:49:08 51°13.637 2°56.018 9.5637 3.0284 27.291006 -2.458615
2012-04-16 06:49:12 51°13.637 2°56.018 9.5649 3.029021 27.298539 -2.458615
2012-04-16 06:49:17 51°13.637 2°56.018 9.5635 3.030469 27.314305 -2.458615
2012-04-16 06:49:22 51°13.637 2°56.018 9.5632 3.031606 27.327667 -2.458615
2012-04-16 06:49:27 51°13.637 2°56.018 9.5601 3.032744 27.340351 -2.458615
2012-04-16 06:49:32 51°13.637 2°56.018 9.5617 3.032744 27.340351 -2.458615
2012-04-16 06:49:37 51°13.637 2°56.018 9.5607 3.033985 27.354747 -2.458615
2012-04-16 06:49:42 51°13.636 2°56.018 9.5618 3.035744 27.373613 -2.458615
2012-04-16 06:49:47 51°13.636 2°56.018 9.5628 3.036571 27.382533 -2.458615
2012-04-16 06:49:52 51°13.636 2°56.018 9.5623 3.037606 27.392831 -2.458615
2012-04-16 06:49:57 51°13.636 2°56.018 9.5642 3.038226 27.399692 -2.458615
2012-04-16 06:50:02 51°13.636 2°56.018 9.5601 3.038226 27.399692 -2.458615
2012-04-16 06:50:07 51°13.637 2°56.018 9.5615 3.038433 27.402434 -2.458615
2012-04-16 06:50:12 51°13.636 2°56.018 9.5665 3.039054 27.409296 -2.458615
2012-04-16 06:50:17 51°13.636 2°56.018 9.5664 3.03926 27.412038 -2.458615
2012-04-16 06:50:22 51°13.636 2°56.018 9.5658 3.039157 27.410326 -2.458615
2012-04-16 06:50:27 51°13.636 2°56.018 9.5651 3.039467 27.414098 -2.458615
2012-04-16 06:50:32 51°13.636 2°56.018 9.5639 3.039467 27.414098 -2.458615
2012-04-16 06:50:37 51°13.636 2°56.018 9.5651 3.040502 27.424399 -2.458615
2012-04-16 06:50:42 51°13.636 2°56.018 9.5623 3.040502 27.424399 -2.458615
2012-04-16 06:50:47 51°13.636 2°56.018 9.5629 3.040812 27.426807 -2.458615
2012-04-16 06:50:52 51°13.636 2°56.018 9.5597 3.041226 27.430244 -2.458615
2012-04-16 06:50:57 51°13.636 2°56.018 9.5611 3.041639 27.433682 -2.458615
2012-04-16 06:51:03 51°13.636 2°56.018 9.5571 3.041639 27.433682 -2.458615
2012-04-16 06:51:08 51°13.636 2°56.018 9.5586 3.041329 27.431274 -2.458615
2012-04-16 06:51:12 51°13.636 2°56.019 9.558 3.04195 27.437455 -2.458615
2012-04-16 06:51:17 51°13.636 2°56.019 9.5562 3.042363 27.442259 -2.458615
2012-04-16 06:51:22 51°13.636 2°56.019 9.5547 3.04257 27.445002 -2.458615
2012-04-16 06:51:27 51°13.636 2°56.019 9.5539 3.042363 27.442942 -2.458615
2012-04-16 06:51:32 51°13.636 2°56.019 9.5525 3.042363 27.442942 -2.458615
2012-04-16 06:51:37 51°13.636 2°56.019 9.5536 3.042674 27.447399 -2.458615
2012-04-16 06:51:42 51°13.636 2°56.019 9.552 3.04257 27.447052 -2.458615
2012-04-16 06:51:47 51°13.636 2°56.019 9.5515 3.042467 27.446021 -2.458615
2012-04-16 06:51:52 51°13.636 2°56.019 9.5536 3.042674 27.449449 -2.458615
2012-04-16 06:51:57 51°13.636 2°56.019 9.5518 3.042674 27.450132 -2.458615
2012-04-16 06:52:02 51°13.636 2°56.019 9.5518 3.042674 27.450132 -2.458615
2012-04-16 06:52:07 51°13.636 2°56.019 9.5495 3.043398 27.458712 -2.458615
2012-04-16 06:52:12 51°13.636 2°56.019 9.5511 3.043915 27.464548 -2.458615
2012-04-16 06:52:17 51°13.636 2°56.019 9.5526 3.043812 27.464201 -2.458615
2012-04-16 06:52:22 51°13.636 2°56.019 9.5552 3.043812 27.464201 -2.458615
2012-04-16 06:52:27 51°13.635 2°56.019 9.5508 3.043812 27.464885 -2.458615
2012-04-16 06:52:32 51°13.635 2°56.019 9.5507 3.043812 27.464885 -2.458615
2012-04-16 06:52:37 51°13.635 2°56.019 9.5505 3.043708 27.463855 -2.458615
2012-04-16 06:52:42 51°13.635 2°56.019 9.5506 3.043708 27.464539 -2.458615
2012-04-16 06:52:47 51°13.635 2°56.019 9.5488 3.043088 27.458355 -2.458615
2012-04-16 06:52:52 51°13.635 2°56.019 9.5476 3.04257 27.453203 -2.458615
2012-04-16 06:52:58 51°13.635 2°56.019 9.545 3.042053 27.447367 -2.458615
2012-04-16 06:53:02 51°13.635 2°56.019 9.5477 3.042053 27.447367 -2.458615
2012-04-16 06:53:07 51°13.635 2°56.019 9.5459 3.041536 27.442898 -2.458615
2012-04-16 06:53:12 51°13.635 2°56.019 9.5448 3.041329 27.440837 -2.458615
2012-04-16 06:53:17 51°13.635 2°56.019 9.5442 3.041019 27.438429 -2.458615
2012-04-16 06:53:23 51°13.635 2°56.019 9.547 3.041226 27.441173 -2.458615
2012-04-16 06:53:27 51°13.635 2°56.019 9.5444 3.040502 27.435326 -2.458615
2012-04-16 06:53:32 51°13.635 2°56.019 9.5449 3.040502 27.435326 -2.458615
2012-04-16 06:53:37 51°13.636 2°56.019 9.5462 3.040192 27.432918 -2.458615
2012-04-16 06:53:42 51°13.635 2°56.019 9.5493 3.039881 27.429826 -2.458615
2012-04-16 06:53:48 51°13.636 2°56.019 9.5464 3.039157 27.422613 -2.458615
2012-04-16 06:53:52 51°13.635 2°56.019 9.5482 3.03895 27.421917 -2.458615
2012-04-16 06:53:57 51°13.635 2°56.019 9.5485 3.038123 27.413673 -2.458615
2012-04-16 06:54:02 51°13.636 2°56.019 9.551 3.038123 27.413673 -2.458615
2012-04-16 06:54:07 51°13.636 2°56.019 9.5522 3.037399 27.40646 -2.458615
2012-04-16 06:54:12 51°13.636 2°56.019 9.5536 3.037709 27.409552 -2.458615
2012-04-16 06:54:17 51°13.636 2°56.019 9.5504 3.037192 27.403717 -2.458615
2012-04-16 06:54:22 51°13.636 2°56.019 9.551 3.036054 27.391701 -2.458615
2012-04-16 06:54:27 51°13.636 2°56.019 9.5519 3.035123 27.381746 -2.458615
2012-04-16 06:54:32 51°13.636 2°56.019 9.556 3.035123 27.381746 -2.458615
2012-04-16 06:54:37 51°13.636 2°56.019 9.5529 3.035537 27.385867 -2.458615
2012-04-16 06:54:42 51°13.636 2°56.019 9.555 3.03533 27.383125 -2.458615
2012-04-16 06:54:47 51°13.636 2°56.019 9.5528 3.034813 27.377292 -2.458615
2012-04-16 06:54:52 51°13.636 2°56.019 9.5518 3.034503 27.37352 -2.458615
2012-04-16 06:54:58 51°13.636 2°56.019 9.5529 3.034089 27.369399 -2.458615
2012-04-16 06:55:02 51°13.636 2°56.019 9.554 3.034089 27.369399 -2.458615
2012-04-16 06:55:07 51°13.636 2°56.019 9.5545 3.033882 27.366657 -2.458615
2012-04-16 06:55:12 51°13.636 2°56.019 9.5541 3.033986 27.367006 -2.458615
2012-04-16 06:55:17 51°13.636 2°56.019 9.5552 3.034089 27.368036 -2.458615
2012-04-16 06:55:23 51°13.636 2°56.019 9.553 3.034192 27.369066 -2.458615
2012-04-16 06:55:27 51°13.636 2°56.019 9.5534 3.034089 27.368036 -2.458615
2012-04-16 06:55:32 51°13.636 2°56.019 9.5552 3.034089 27.368036 -2.458615
2012-04-16 06:55:37 51°13.636 2°56.019 9.5508 3.034089 27.368718 -2.458615
2012-04-16 06:55:42 51°13.636 2°56.019 9.5548 3.034399 27.371126 -2.458615
2012-04-16 06:55:47 51°13.636 2°56.019 9.5464 3.03502 27.377307 -2.458615
2012-04-16 06:55:52 51°13.636 2°56.019 9.5512 3.03502 27.376625 -2.458615
2012-04-16 06:55:57 51°13.636 2°56.019 9.5455 3.035434 27.381427 -2.458615
2012-04-16 06:56:02 51°13.636 2°56.019 9.5428 3.035434 27.381427 -2.458615
2012-04-16 06:56:08 51°13.636 2°56.019 9.5428 3.035227 27.379367 -2.458615
2012-04-16 06:56:12 51°13.636 2°56.019 9.544 3.035434 27.381427 -2.458615
2012-04-16 06:56:17 51°13.636 2°56.019 9.5452 3.035744 27.3852 -2.458615
2012-04-16 06:56:22 51°13.636 2°56.018 9.5483 3.035434 27.382791 -2.458615
2012-04-16 06:56:27 51°13.636 2°56.018 9.5451 3.035744 27.387246 -2.458615
2012-04-16 06:56:32 51°13.636 2°56.018 9.5446 3.035744 27.387246 -2.458615
2012-04-16 06:56:37 51°13.636 2°56.018 9.5451 3.036054 27.391701 -2.458615
2012-04-16 06:56:42 51°13.636 2°56.018 9.5464 3.036158 27.393413 -2.458615
2012-04-16 06:56:47 51°13.636 2°56.018 9.5464 3.036365 27.396156 -2.458615
2012-04-16 06:56:52 51°13.636 2°56.018 9.5453 3.036054 27.393065 -2.458615
2012-04-16 06:56:57 51°13.636 2°56.018 9.544 3.036468 27.397186 -2.458615
2012-04-16 06:57:02 51°13.636 2°56.018 9.5426 3.036468 27.397186 -2.458615
2012-04-16 06:57:07 51°13.636 2°56.018 9.5423 3.036158 27.394778 -2.458615
2012-04-16 06:57:12 51°13.636 2°56.018 9.5406 3.036261 27.395808 -2.458615
2012-04-16 06:57:17 51°13.636 2°56.018 9.539 3.036261 27.395126 -2.458615
2012-04-16 06:57:22 51°13.636 2°56.018 9.5395 3.035951 27.392717 -2.458615
2012-04-16 06:57:27 51°13.636 2°56.018 9.5385 3.035537 27.387913 -2.458615
2012-04-16 06:57:32 51°13.636 2°56.018 9.5401 3.035537 27.387913 -2.458615
2012-04-16 06:57:37 51°13.636 2°56.018 9.5391 3.035123 27.385156 -2.458615
2012-04-16 06:57:42 51°13.636 2°56.018 9.5403 3.03471 27.381034 -2.458615
2012-04-16 06:57:47 51°13.636 2°56.018 9.5415 3.034399 27.378625 -2.458615
2012-04-16 06:57:52 51°13.636 2°56.018 9.5399 3.034296 27.378959 -2.458615
2012-04-16 06:57:57 51°13.636 2°56.018 9.5383 3.033986 27.377231 -2.458615
2012-04-16 06:58:02 51°13.636 2°56.018 9.5398 3.033986 27.377231 -2.458615
2012-04-16 06:58:07 51°13.636 2°56.018 9.5409 3.033779 27.37517 -2.458615
2012-04-16 06:58:12 51°13.636 2°56.018 9.5405 3.033158 27.368988 -2.458615
2012-04-16 06:58:17 51°13.636 2°56.018 9.5403 3.033158 27.36967 -2.458615
2012-04-16 06:58:22 51°13.636 2°56.018 9.5412 3.032331 27.360745 -2.458615
2012-04-16 06:58:27 51°13.636 2°56.018 9.5407 3.032434 27.361094 -2.458615
2012-04-16 06:58:32 51°13.636 2°56.018 9.539 3.032434 27.361094 -2.458615
2012-04-16 06:58:37 51°13.636 2°56.018 9.5428 3.03171 27.354563 -2.458615
2012-04-16 06:58:42 51°13.636 2°56.018 9.5408 3.03171 27.354563 -2.458615
2012-04-16 06:58:47 51°13.636 2°56.018 9.5424 3.031503 27.352502 -2.458615
2012-04-16 06:58:52 51°13.636 2°56.018 9.5426 3.031917 27.356623 -2.458615
2012-04-16 06:58:57 51°13.636 2°56.018 9.543 3.031607 27.353532 -2.458615
2012-04-16 06:59:02 51°13.636 2°56.018 9.5434 3.031607 27.353532 -2.458615
2012-04-16 06:59:07 51°13.636 2°56.018 9.5455 3.031814 27.355593 -2.458615
2012-04-16 06:59:12 51°13.637 2°56.018 9.5439 3.032227 27.360396 -2.458615
2012-04-16 06:59:18 51°13.636 2°56.018 9.5437 3.032641 27.363836 -2.458615
2012-04-16 06:59:22 51°13.636 2°56.018 9.5445 3.032434 27.361094 -2.458615
2012-04-16 06:59:27 51°13.637 2°56.018 9.5449 3.032848 27.365215 -2.458615
2012-04-16 06:59:32 51°13.637 2°56.019 9.5463 3.032848 27.365215 -2.458615
2012-04-16 06:59:37 51°13.637 2°56.019 9.5468 3.033158 27.367624 -2.458615
2012-04-16 06:59:42 51°13.636 2°56.019 9.547 3.033262 27.367973 -2.458615
2012-04-16 06:59:47 51°13.636 2°56.019 9.5472 3.032951 27.364882 -2.458615
2012-04-16 06:59:52 51°13.636 2°56.019 9.5464 3.032951 27.364882 -2.458615
2012-04-16 06:59:57 51°13.636 2°56.019 9.5489 3.032951 27.364882 -2.458615
2012-04-16 07:00:03 51°13.636 2°56.019 9.5513 3.032951 27.364882 -2.458615
2012-04-16 07:00:08 51°13.636 2°56.019 9.5504 3.033158 27.366943 -2.458615
2012-04-16 07:00:12 51°13.636 2°56.019 9.5514 3.033262 27.367291 -2.458615
2012-04-16 07:00:17 51°13.636 2°56.019 9.5508 3.033365 27.36764 -2.458615
2012-04-16 07:00:22 51°13.636 2°56.019 9.5515 3.033365 27.36764 -2.458615
2012-04-16 07:00:27 51°13.636 2°56.019 9.5507 3.033675 27.370049 -2.458615
2012-04-16 07:00:32 51°13.636 2°56.019 9.5506 3.033675 27.370049 -2.458615
2012-04-16 07:00:37 51°13.636 2°56.019 9.5513 3.033779 27.370398 -2.458615
2012-04-16 07:00:42 51°13.636 2°56.019 9.55 3.033572 27.367656 -2.458615
2012-04-16 07:00:47 51°13.636 2°56.019 9.5519 3.033882 27.370065 -2.458615
2012-04-16 07:00:52 51°13.636 2°56.019 9.5511 3.033675 27.368005 -2.458615
2012-04-16 07:00:57 51°13.636 2°56.019 9.5502 3.033779 27.368353 -2.458615
2012-04-16 07:01:02 51°13.636 2°56.019 9.55 3.033779 27.368353 -2.458615
2012-04-16 07:01:07 51°13.636 2°56.019 9.5513 3.033882 27.369383 -2.458615
2012-04-16 07:01:12 51°13.636 2°56.019 9.5502 3.033779 27.368353 -2.458615
2012-04-16 07:01:17 51°13.636 2°56.019 9.55 3.033675 27.367323 -2.458615
2012-04-16 07:01:22 51°13.636 2°56.02 9.5509 3.033675 27.366642 -2.458615
2012-04-16 07:01:27 51°13.636 2°56.019 9.5509 3.033779 27.368353 -2.458615
2012-04-16 07:01:32 51°13.636 2°56.019 9.5519 3.033779 27.368353 -2.458615
2012-04-16 07:01:37 51°13.636 2°56.019 9.5517 3.033779 27.368353 -2.458615
2012-04-16 07:01:42 51°13.636 2°56.019 9.552 3.033779 27.369035 -2.458615
2012-04-16 07:01:47 51°13.636 2°56.019 9.551 3.033882 27.368702 -2.458615
2012-04-16 07:01:52 51°13.636 2°56.019 9.5528 3.034296 27.373504 -2.458615
2012-04-16 07:01:57 51°13.636 2°56.019 9.5497 3.034296 27.373504 -2.458615
2012-04-16 07:02:02 51°13.636 2°56.02 9.5479 3.034296 27.373504 -2.458615
2012-04-16 07:02:07 51°13.636 2°56.02 9.5478 3.034192 27.372474 -2.458615
2012-04-16 07:02:12 51°13.636 2°56.019 9.5488 3.033986 27.369732 -2.458615
2012-04-16 07:02:17 51°13.636 2°56.019 9.5502 3.034399 27.373853 -2.458615
2012-04-16 07:02:22 51°13.636 2°56.019 9.5463 3.034296 27.372141 -2.458615
2012-04-16 07:02:27 51°13.636 2°56.019 9.5475 3.034399 27.373171 -2.458615
2012-04-16 07:02:32 51°13.636 2°56.019 9.5481 3.034399 27.373171 -2.458615
2012-04-16 07:02:37 51°13.636 2°56.02 9.545 3.03471 27.377625 -2.458615
2012-04-16 07:02:42 51°13.636 2°56.02 9.5451 3.03471 27.377625 -2.458615
2012-04-16 07:02:48 51°13.636 2°56.02 9.5459 3.035434 27.385519 -2.458615
2012-04-16 07:02:52 51°13.636 2°56.02 9.5451 3.03533 27.38517 -2.458615
2012-04-16 07:02:57 51°13.636 2°56.02 9.5481 3.035847 27.38964 -2.458615
2012-04-16 07:03:02 51°13.635 2°56.02 9.5432 3.035847 27.38964 -2.458615
2012-04-16 07:03:07 51°13.635 2°56.02 9.5428 3.035847 27.390322 -2.458615
2012-04-16 07:03:12 51°13.636 2°56.02 9.542 3.036054 27.393065 -2.458615
2012-04-16 07:03:17 51°13.635 2°56.02 9.5437 3.036468 27.397869 -2.458615
2012-04-16 07:03:22 51°13.636 2°56.02 9.5405 3.036778 27.401643 -2.458615
2012-04-16 07:03:27 51°13.636 2°56.02 9.5424 3.037089 27.404734 -2.458615
2012-04-16 07:03:32 51°13.636 2°56.019 9.5389 3.037089 27.404734 -2.458615
2012-04-16 07:03:37 51°13.636 2°56.019 9.5336 3.037606 27.409886 -2.458615
2012-04-16 07:03:42 51°13.636 2°56.019 9.5376 3.038744 27.421905 -2.458615
2012-04-16 07:03:47 51°13.636 2°56.019 9.5344 3.039571 27.43015 -2.458615
2012-04-16 07:03:52 51°13.636 2°56.019 9.5318 3.040088 27.435303 -2.458615
2012-04-16 07:03:58 51°13.636 2°56.019 9.5296 3.041226 27.448008 -2.458615
2012-04-16 07:04:02 51°13.636 2°56.019 9.5266 3.041226 27.448008 -2.458615
2012-04-16 07:04:07 51°13.636 2°56.019 9.528 3.041329 27.449039 -2.458615
2012-04-16 07:04:12 51°13.636 2°56.019 9.5284 3.040709 27.444905 -2.458615
2012-04-16 07:04:17 51°13.636 2°56.019 9.5292 3.039778 27.436311 -2.458615
2012-04-16 07:04:23 51°13.636 2°56.019 9.5276 3.038537 27.425309 -2.458615
2012-04-16 07:04:27 51°13.636 2°56.019 9.5295 3.037192 27.413958 -2.458615
2012-04-16 07:04:32 51°13.636 2°56.019 9.528 3.037192 27.413958 -2.458615
2012-04-16 07:04:37 51°13.636 2°56.019 9.5272 3.036261 27.406729 -2.458615
2012-04-16 07:04:42 51°13.636 2°56.019 9.53 3.035124 27.396756 -2.458615
2012-04-16 07:04:47 51°13.636 2°56.019 9.5318 3.034193 27.387479 -2.458615
2012-04-16 07:04:52 51°13.636 2°56.019 9.5299 3.033572 27.381294 -2.458615
2012-04-16 07:04:57 51°13.636 2°56.019 9.534 3.033572 27.382659 -2.458615
2012-04-16 07:05:02 51°13.636 2°56.019 9.5295 3.033572 27.382659 -2.458615
2012-04-16 07:05:08 51°13.636 2°56.019 9.5297 3.033469 27.380946 -2.458615
2012-04-16 07:05:12 51°13.636 2°56.019 9.5284 3.033676 27.38369 -2.458615
2012-04-16 07:05:17 51°13.636 2°56.019 9.5284 3.033158 27.377854 -2.458615
2012-04-16 07:05:22 51°13.636 2°56.019 9.5296 3.032848 27.374079 -2.458615
2012-04-16 07:05:27 51°13.636 2°56.019 9.5314 3.032331 27.368926 -2.458615
2012-04-16 07:05:32 51°13.635 2°56.02 9.533 3.032331 27.368926 -2.458615
2012-04-16 07:05:37 51°13.635 2°56.02 9.5298 3.031607 27.361029 -2.458615
2012-04-16 07:05:42 51°13.635 2°56.02 9.5331 3.031297 27.357938 -2.458615
2012-04-16 07:05:47 51°13.635 2°56.02 9.5327 3.030573 27.350723 -2.458615
2012-04-16 07:05:52 51°13.635 2°56.02 9.5345 3.029952 27.345222 -2.458615
2012-04-16 07:05:57 51°13.635 2°56.02 9.5341 3.029125 27.336977 -2.458615
2012-04-16 07:06:02 51°13.635 2°56.02 9.5334 3.029125 27.336977 -2.458615
2012-04-16 07:06:07 51°13.636 2°56.02 9.532 3.029331 27.338357 -2.458615
2012-04-16 07:06:12 51°13.635 2°56.02 9.5366 3.029021 27.335266 -2.458615
2012-04-16 07:06:17 51°13.635 2°56.02 9.5325 3.028918 27.333554 -2.458615
2012-04-16 07:06:22 51°13.635 2°56.02 9.5334 3.029021 27.333903 -2.458615
2012-04-16 07:06:27 51°13.635 2°56.02 9.5325 3.028607 27.329782 -2.458615
2012-04-16 07:06:32 51°13.635 2°56.019 9.5358 3.028607 27.329782 -2.458615
2012-04-16 07:06:37 51°13.635 2°56.019 9.5355 3.02809 27.323949 -2.458615
2012-04-16 07:06:42 51°13.635 2°56.019 9.5387 3.027573 27.319478 -2.458615
2012-04-16 07:06:47 51°13.635 2°56.019 9.5342 3.026849 27.311585 -2.458615
2012-04-16 07:06:52 51°13.635 2°56.019 9.5326 3.026125 27.304373 -2.458615
2012-04-16 07:06:57 51°13.635 2°56.019 9.5335 3.02447 27.288569 -2.458615
2012-04-16 07:07:02 51°13.635 2°56.02 9.5309 3.02447 27.288569 -2.458615
2012-04-16 07:07:08 51°13.635 2°56.019 9.5327 3.019195 27.235357 -2.458615
2012-04-16 07:07:12 51°13.636 2°56.019 9.5329 3.012679 27.170482 -2.458615
2012-04-16 07:07:17 51°13.636 2°56.019 9.5329 3.008336 27.126568 -2.458615
2012-04-16 07:07:22 51°13.635 2°56.019 9.5332 3.003475 27.078194 -2.458615
2012-04-16 07:07:27 51°13.635 2°56.019 9.5344 2.99789 27.02263 -2.458615
2012-04-16 07:07:32 51°13.635 2°56.019 9.5351 2.99789 27.02263 -2.458615
2012-04-16 07:07:37 51°13.635 2°56.019 9.5353 2.993856 26.983182 -2.458615
2012-04-16 07:07:42 51°13.635 2°56.019 9.5381 2.989099 26.936541 -2.458615
2012-04-16 07:07:47 51°13.635 2°56.019 9.5334 2.985893 26.904661 -2.458615
2012-04-16 07:07:52 51°13.636 2°56.019 9.5403 2.9831 26.877569 -2.458615
2012-04-16 07:07:57 51°13.636 2°56.019 9.5359 2.981446 26.861119 -2.458615
2012-04-16 07:08:02 51°13.636 2°56.019 9.5345 2.981446 26.861119 -2.458615
2012-04-16 07:08:07 51°13.635 2°56.019 9.5333 2.980308 26.849142 -2.458615
2012-04-16 07:08:12 51°13.635 2°56.019 9.5368 2.979481 26.840249 -2.458615
2012-04-16 07:08:17 51°13.635 2°56.02 9.542 2.97886 26.832745 -2.458615
2012-04-16 07:08:22 51°13.635 2°56.02 9.539 2.978964 26.833773 -2.458615
2012-04-16 07:08:27 51°13.635 2°56.02 9.5364 2.979067 26.834132 -2.458615
2012-04-16 07:08:32 51°13.635 2°56.02 9.5387 2.979067 26.834132 -2.458615
2012-04-16 07:08:38 51°13.635 2°56.02 9.5415 2.978964 26.833105 -2.458615
2012-04-16 07:08:42 51°13.635 2°56.02 9.5421 2.978653 26.830689 -2.458615
2012-04-16 07:08:47 51°13.636 2°56.02 9.5387 2.978964 26.833773 -2.458615
2012-04-16 07:08:52 51°13.636 2°56.02 9.5359 2.97886 26.832077 -2.458615
2012-04-16 07:08:57 51°13.636 2°56.02 9.5409 2.97886 26.831408 -2.458615
2012-04-16 07:09:02 51°13.636 2°56.02 9.5544 2.97886 26.831408 -2.458615
2012-04-16 07:09:08 51°13.636 2°56.02 9.5412 2.97917 26.834492 -2.458615
2012-04-16 07:09:12 51°13.636 2°56.02 9.5365 2.978964 26.832436 -2.458615
2012-04-16 07:09:17 51°13.635 2°56.02 9.6437 2.978446 26.826629 -2.458615
2012-04-16 07:09:22 51°13.635 2°56.019 9.7013 2.981652 26.857154 -2.458615
2012-04-16 07:09:28 51°13.636 2°56.02 9.7308 2.75966 24.657427 -2.458615
2012-04-16 07:09:32 51°13.635 2°56.019 9.765 2.75966 24.657427 -2.458615
2012-04-16 07:09:37 51°13.636 2°56.019 9.7813 2.792224 24.977869 -2.458615
2012-04-16 07:09:42 51°13.636 2°56.019 9.792 2.897786 26.018787 -2.458615
2012-04-16 07:09:47 51°13.636 2°56.019 9.8057 2.88393 25.881699 -2.458615
2012-04-16 07:09:52 51°13.635 2°56.019 9.8174 2.92281 26.2666 -2.458615
2012-04-16 07:09:57 51°13.635 2°56.019 9.825 2.953316 26.569098 -2.458615
2012-04-16 07:10:02 51°13.635 2°56.019 9.8297 2.953316 26.569098 -2.458615
2012-04-16 07:10:07 51°13.635 2°56.019 9.8338 2.970897 26.742958 -2.458615
2012-04-16 07:10:12 51°13.635 2°56.019 9.8362 2.965933 26.693666 -2.458615
2012-04-16 07:10:17 51°13.635 2°56.019 9.8385 2.970069 26.734742 -2.458615
2012-04-16 07:10:22 51°13.635 2°56.019 9.8405 2.967174 26.705988 -2.458615
2012-04-16 07:10:27 51°13.635 2°56.02 9.8399 2.974723 26.780962 -2.458615
2012-04-16 07:10:32 51°13.635 2°56.02 9.8432 2.974723 26.780962 -2.458615
2012-04-16 07:10:37 51°13.635 2°56.02 9.8457 2.969863 26.732688 -2.458615
2012-04-16 07:10:42 51°13.635 2°56.02 9.8506 2.97886 26.822055 -2.458615
2012-04-16 07:10:47 51°13.635 2°56.019 9.8521 2.967484 26.708404 -2.458615
2012-04-16 07:10:52 51°13.634 2°56.019 9.8525 2.972552 26.758725 -2.458615
2012-04-16 07:10:57 51°13.634 2°56.019 9.8556 2.977205 26.80495 -2.458615
2012-04-16 07:11:03 51°13.634 2°56.019 9.8689 2.977205 26.80495 -2.458615
2012-04-16 07:11:07 51°13.634 2°56.019 9.8646 2.973275 26.765249 -2.458615
2012-04-16 07:11:12 51°13.634 2°56.019 9.871 2.969966 26.732384 -2.458615
2012-04-16 07:11:17 51°13.634 2°56.018 9.8843 2.973689 26.769357 -2.458615
2012-04-16 07:11:22 51°13.634 2°56.016 9.8819 2.975654 26.788873 -2.458615
2012-04-16 07:11:27 51°13.635 2°56.014 9.8965 2.975034 26.78271 -2.458615
2012-04-16 07:11:32 51°13.635 2°56.01 9.9044 2.975034 26.78271 -2.458615
2012-04-16 07:11:37 51°13.636 2°56.004 9.9091 2.982687 26.859405 -2.458615
2012-04-16 07:11:42 51°13.638 2°55.998 9.913 2.968828 26.721753 -2.458615
2012-04-16 07:11:48 51°13.639 2°55.99 9.9185 2.980101 26.833717 -2.458615
2012-04-16 07:11:52 51°13.64 2°55.984 9.9253 2.978963 26.823083 -2.458615
2012-04-16 07:11:57 51°13.642 2°55.976 9.9339 2.984962 26.882683 -2.458615
2012-04-16 07:12:02 51°13.643 2°55.968 9.9399 2.984962 26.882683 -2.458615
2012-04-16 07:12:07 51°13.645 2°55.961 9.938 2.98279 26.860433 -2.458615
2012-04-16 07:12:12 51°13.646 2°55.953 9.9397 2.982893 26.86146 -2.458615
2012-04-16 07:12:17 51°13.647 2°55.944 9.9507 2.984134 26.873792 -2.458615
2012-04-16 07:12:22 51°13.649 2°55.937 9.9474 2.983514 26.867626 -2.458615
2012-04-16 07:12:27 51°13.651 2°55.929 9.9531 2.982687 26.858737 -2.458615
2012-04-16 07:12:32 51°13.653 2°55.92 9.9655 2.982687 26.858737 -2.458615
2012-04-16 07:12:37 51°13.654 2°55.912 9.9755 2.984548 26.877234 -2.458615
2012-04-16 07:12:42 51°13.657 2°55.904 9.9771 2.983514 26.866288 -2.458615
2012-04-16 07:12:47 51°13.66 2°55.895 9.9789 2.985065 26.881034 -2.458615
2012-04-16 07:12:52 51°13.663 2°55.887 9.9828 2.983721 26.867675 -2.458615
2012-04-16 07:12:57 51°13.666 2°55.878 9.992 2.983617 26.865309 -2.458615
2012-04-16 07:13:02 51°13.669 2°55.87 9.9991 2.983617 26.865309 -2.458615
2012-04-16 07:13:07 51°13.672 2°55.861 9.9936 2.984134 26.869778 -2.458615
2012-04-16 07:13:12 51°13.676 2°55.853 9.9876 2.983617 26.863972 -2.458615
2012-04-16 07:13:17 51°13.679 2°55.844 9.9885 2.984651 26.873578 -2.458615
2012-04-16 07:13:23 51°13.684 2°55.833 9.9879 2.984858 26.874964 -2.458615
2012-04-16 07:13:27 51°13.688 2°55.826 9.9936 2.991064 26.935951 -2.458615
2012-04-16 07:13:32 51°13.692 2°55.817 10.0222 2.991064 26.935951 -2.458615
2012-04-16 07:13:37 51°13.696 2°55.808 10.0249 2.99034 26.928087 -2.458615
2012-04-16 07:13:42 51°13.7 2°55.8 10.0253 2.990236 26.926389 -2.458615
2012-04-16 07:13:47 51°13.704 2°55.791 10.0344 2.987237 26.89525 -2.458615
2012-04-16 07:13:52 51°13.708 2°55.783 10.0475 2.989512 26.917186 -2.458615
2012-04-16 07:13:57 51°13.712 2°55.775 10.0515 2.986823 26.890471 -2.458615
2012-04-16 07:14:02 51°13.716 2°55.767 10.0646 2.986823 26.890471 -2.458615
2012-04-16 07:14:07 51°13.72 2°55.759 10.0734 2.989099 26.912406 -2.458615
2012-04-16 07:14:12 51°13.725 2°55.751 10.0887 2.985996 26.880245 -2.458615
2012-04-16 07:14:17 51°13.728 2°55.742 10.0862 2.991167 26.930276 -2.458615
2012-04-16 07:14:22 51°13.733 2°55.734 10.0925 2.989409 26.9108 -2.458615
2012-04-16 07:14:27 51°13.738 2°55.726 10.0992 2.992822 26.942694 -2.458615
2012-04-16 07:14:32 51°13.743 2°55.718 10.1091 2.992822 26.942694 -2.458615
2012-04-16 07:14:37 51°13.747 2°55.71 10.1102 2.990443 26.916386 -2.458615
2012-04-16 07:14:42 51°13.752 2°55.702 10.1159 2.992718 26.936305 -2.458615
2012-04-16 07:14:47 51°13.757 2°55.694 10.1231 2.995924 26.965469 -2.458615
2012-04-16 07:14:52 51°13.763 2°55.687 10.139 2.992098 26.925454 -2.458615
2012-04-16 07:14:57 51°13.768 2°55.679 10.1405 2.991994 26.922418 -2.458615
2012-04-16 07:15:02 51°13.773 2°55.672 10.153 2.991994 26.922418 -2.458615
2012-04-16 07:15:07 51°13.779 2°55.665 10.1523 2.993442 26.934116 -2.458615
2012-04-16 07:15:12 51°13.785 2°55.658 10.1564 2.99127 26.911214 -2.458615
2012-04-16 07:15:17 51°13.791 2°55.652 10.1627 2.996027 26.955769 -2.458615
2012-04-16 07:15:22 51°13.796 2°55.646 10.1705 2.986616 26.859006 -2.458615
2012-04-16 07:15:27 51°13.802 2°55.639 10.1827 2.992201 26.910419 -2.458615
2012-04-16 07:15:32 51°13.809 2°55.634 10.1882 2.992201 26.910419 -2.458615
2012-04-16 07:15:37 51°13.815 2°55.629 10.196 2.993132 26.916981 -2.458615
2012-04-16 07:15:43 51°13.823 2°55.623 10.2037 2.986409 26.846277 -2.458615
2012-04-16 07:15:47 51°13.828 2°55.62 10.2101 2.983513 26.813558 -2.458615
2012-04-16 07:15:52 51°13.835 2°55.615 10.2226 2.9952 26.925465 -2.458615
2012-04-16 07:15:57 51°13.841 2°55.611 10.2263 2.982065 26.791214 -2.458615
2012-04-16 07:16:02 51°13.847 2°55.608 10.2342 2.982065 26.791214 -2.458615
2012-04-16 07:16:08 51°13.855 2°55.604 10.235 2.996544 26.931446 -2.458615
2012-04-16 07:16:12 51°13.86 2°55.601 10.2397 2.986926 26.834072 -2.458615
2012-04-16 07:16:17 51°13.866 2°55.599 10.2495 2.991063 26.872416 -2.458615
2012-04-16 07:16:22 51°13.872 2°55.597 10.2516 2.993752 26.89507 -2.458615
2012-04-16 07:16:27 51°13.878 2°55.595 10.256 2.987443 26.828541 -2.458615
2012-04-16 07:16:32 51°13.884 2°55.594 10.266 2.987443 26.828541 -2.458615
2012-04-16 07:16:37 51°13.89 2°55.594 10.2736 2.992407 26.873738 -2.458615
2012-04-16 07:16:42 51°13.896 2°55.594 10.2773 2.990856 26.854366 -2.458615
2012-04-16 07:16:47 51°13.901 2°55.594 10.2834 2.99944 26.936093 -2.458615
2012-04-16 07:16:52 51°13.906 2°55.595 10.2864 2.993027 26.86922 -2.458615
2012-04-16 07:16:57 51°13.911 2°55.597 10.2879 2.99251 26.860101 -2.458615
2012-04-16 07:17:02 51°13.916 2°55.599 10.2939 2.99251 26.860101 -2.458615
2012-04-16 07:17:07 51°13.921 2°55.601 10.3032 2.986719 26.799422 -2.458615
2012-04-16 07:17:12 51°13.925 2°55.603 10.3012 2.991476 26.842536 -2.458615
2012-04-16 07:17:18 51°13.93 2°55.607 10.3176 2.994372 26.867881 -2.458615
2012-04-16 07:17:22 51°13.934 2°55.61 10.3212 2.967483 26.597846 -2.458615
2012-04-16 07:17:27 51°13.937 2°55.614 10.3267 3.0073 26.988569 -2.458615
2012-04-16 07:17:32 51°13.941 2°55.619 10.329 3.0073 26.988569 -2.458615
2012-04-16 07:17:37 51°13.944 2°55.623 10.3311 2.987029 26.784564 -2.458615
2012-04-16 07:17:43 51°13.948 2°55.628 10.3412 2.990131 26.812608 -2.458615
2012-04-16 07:17:47 51°13.95 2°55.631 10.3469 2.997785 26.88635 -2.458615
2012-04-16 07:17:52 51°13.952 2°55.633 10.3532 2.986718 26.773535 -2.458615
2012-04-16 07:17:57 51°13.952 2°55.634 10.3504 2.978134 26.685343 -2.458615
2012-04-16 07:18:02 51°13.952 2°55.633 10.2578 2.978134 26.685343 -2.458615
2012-04-16 07:18:07 51°13.951 2°55.631 9.9073 3.013091 27.025854 -2.458615
2012-04-16 07:18:12 51°13.951 2°55.626 9.7981 3.020745 27.104323 -2.458615
2012-04-16 07:18:17 51°13.951 2°55.622 9.6797 2.513072 22.06953 -2.458615
2012-04-16 07:18:22 51°13.951 2°55.616 9.5898 2.914632 25.524698 -2.458615
2012-04-16 07:18:28 51°13.952 2°55.608 9.5105 2.979884 26.078003 -2.458615
2012-04-16 07:18:32 51°13.953 2°55.602 9.4768 2.979884 26.078003 -2.458615
2012-04-16 07:18:37 51°13.955 2°55.595 9.4406 3.022081 26.513884 -2.458615
2012-04-16 07:18:42 51°13.958 2°55.588 9.3964 3.038942 26.78 -2.458615
2012-04-16 07:18:47 51°13.961 2°55.581 9.3801 3.050735 27.035717 -2.458615
2012-04-16 07:18:52 51°13.966 2°55.575 9.3533 3.048668 27.133971 -2.458615
2012-04-16 07:18:57 51°13.971 2°55.567 9.3363 3.047015 27.246643 -2.458615
2012-04-16 07:19:02 51°13.977 2°55.561 9.3053 3.047015 27.246643 -2.458615
2012-04-16 07:19:07 51°13.983 2°55.553 9.272 3.037811 27.255199 -2.458615
2012-04-16 07:19:12 51°13.99 2°55.545 9.2567 3.030882 27.250633 -2.458615